<?xml version="1.0" encoding="UTF-8" standalone="no" ?>
<gpx xmlns="http://www.topografix.com/GPX/1/1" xmlns:xsi="http://www.w3.org/2001/XMLSchema-instance" xsi:schemaLocation="http://www.topografix.com/GPX/1/1 http://www.topografix.com/GPX/1/1/gpx.xsd" version="1.1" creator="VisuGPX - https://www.visugpx.com">
  <metadata>
    <name>Les Karellis - Albanne</name>
    <desc><![CDATA[Départ de la station des Karrelis. Prendre le sentier des découvertes du Blanchon. D\'Albanne, prendre la piste qui mène à la Plagne. La quitter après le dernier chalet et tourner à gauche en direction de Prario, puis regagner le hameau puis encore le téléski de la Plagne. Direction N vers le plateau de Vinouva. Revirer SE, jusqu\'au col de Charroute au pied de la pointe des Chaudannes.
Traverser jusqu\'au col des têtes (d\'Albiez le Vieux).
Descendre par le chemin qui serpente dans la combe de Casse Massion, puis prendre la fin du sentier des crêtes de prote Brune. ]]></desc>
  </metadata>
  <trk>
    <name><![CDATA[karellis ]]></name>
    <desc><![CDATA[<h1>OruxMaps</h1><br /><hr align="center" width="480" style="height: 2px; width: 517px"/><h2>Nom: karellis </h2><br /><p>Temps de départ: 07/23/2014 11:35</p><p>Temps d'arrivée: 07/23/2014 14:51</p><p>Distance: 18,8 km (03:15)</p><p>Temps déplacement: 02:15</p><p>Vitesse moyenne: 5,8 km/h</p><p>Vitesse moyenne: 8,3 km/h</p><p>Vitess Max.: 41,8 km/h</p><p>Altitude minimale: 1570 m</p><p>Altitude maximale: 2488 m</p><p>Vitesse d'élévation: 484,9 m/h</p><p>Vitesse de descente: -1326 m/h</p><p>Gain Altitude: 1077 m</p><p>Perte Altitude: -993 m</p><p>Temps d'élévation: 02:13</p><p>Temps de descente: 00:44</p><hr align="center" width="480" style="height: 2px; width: 517px"/>]]></desc>
    <trkseg>
      <trkpt lat="45.22746" lon="6.40595">
        <ele>1588</ele>
        <time>2014-07-23T09:35:36Z</time>
      </trkpt>
      <trkpt lat="45.22736" lon="6.40573">
        <ele>1594</ele>
        <time>2014-07-23T09:36:46Z</time>
      </trkpt>
      <trkpt lat="45.22731" lon="6.40547">
        <ele>1596</ele>
        <time>2014-07-23T09:36:56Z</time>
      </trkpt>
      <trkpt lat="45.22726" lon="6.40521">
        <ele>1597</ele>
        <time>2014-07-23T09:37:03Z</time>
      </trkpt>
      <trkpt lat="45.22725" lon="6.40491">
        <ele>1604</ele>
        <time>2014-07-23T09:37:12Z</time>
      </trkpt>
      <trkpt lat="45.22714" lon="6.4047">
        <ele>1606</ele>
        <time>2014-07-23T09:37:20Z</time>
      </trkpt>
      <trkpt lat="45.22694" lon="6.40467">
        <ele>1607</ele>
        <time>2014-07-23T09:37:29Z</time>
      </trkpt>
      <trkpt lat="45.22675" lon="6.40472">
        <ele>1607</ele>
        <time>2014-07-23T09:37:37Z</time>
      </trkpt>
      <trkpt lat="45.22657" lon="6.40482">
        <ele>1609</ele>
        <time>2014-07-23T09:37:47Z</time>
      </trkpt>
      <trkpt lat="45.22638" lon="6.40488">
        <ele>1610</ele>
        <time>2014-07-23T09:37:57Z</time>
      </trkpt>
      <trkpt lat="45.2262" lon="6.40481">
        <ele>1612</ele>
        <time>2014-07-23T09:38:07Z</time>
      </trkpt>
      <trkpt lat="45.22605" lon="6.40462">
        <ele>1613</ele>
        <time>2014-07-23T09:38:16Z</time>
      </trkpt>
      <trkpt lat="45.22591" lon="6.40446">
        <ele>1615</ele>
        <time>2014-07-23T09:38:31Z</time>
      </trkpt>
      <trkpt lat="45.22574" lon="6.40433">
        <ele>1624</ele>
        <time>2014-07-23T09:38:40Z</time>
      </trkpt>
      <trkpt lat="45.22557" lon="6.40446">
        <ele>1626</ele>
        <time>2014-07-23T09:39:01Z</time>
      </trkpt>
      <trkpt lat="45.22541" lon="6.40459">
        <ele>1628</ele>
        <time>2014-07-23T09:39:11Z</time>
      </trkpt>
      <trkpt lat="45.22527" lon="6.40478">
        <ele>1628</ele>
        <time>2014-07-23T09:39:21Z</time>
      </trkpt>
      <trkpt lat="45.22511" lon="6.4049">
        <ele>1631</ele>
        <time>2014-07-23T09:39:34Z</time>
      </trkpt>
      <trkpt lat="45.22503" lon="6.40515">
        <ele>1625</ele>
        <time>2014-07-23T09:41:44Z</time>
      </trkpt>
      <trkpt lat="45.22491" lon="6.40539">
        <ele>1635</ele>
        <time>2014-07-23T09:41:51Z</time>
      </trkpt>
      <trkpt lat="45.22481" lon="6.40562">
        <ele>1633</ele>
        <time>2014-07-23T09:41:59Z</time>
      </trkpt>
      <trkpt lat="45.22467" lon="6.40582">
        <ele>1634</ele>
        <time>2014-07-23T09:42:07Z</time>
      </trkpt>
      <trkpt lat="45.22454" lon="6.40599">
        <ele>1631</ele>
        <time>2014-07-23T09:42:13Z</time>
      </trkpt>
      <trkpt lat="45.22439" lon="6.40615">
        <ele>1633</ele>
        <time>2014-07-23T09:42:21Z</time>
      </trkpt>
      <trkpt lat="45.22426" lon="6.40638">
        <ele>1633</ele>
        <time>2014-07-23T09:42:29Z</time>
      </trkpt>
      <trkpt lat="45.22426" lon="6.40666">
        <ele>1636</ele>
        <time>2014-07-23T09:42:35Z</time>
      </trkpt>
      <trkpt lat="45.22422" lon="6.40692">
        <ele>1630</ele>
        <time>2014-07-23T09:42:42Z</time>
      </trkpt>
      <trkpt lat="45.22421" lon="6.40721">
        <ele>1629</ele>
        <time>2014-07-23T09:42:49Z</time>
      </trkpt>
      <trkpt lat="45.22419" lon="6.40752">
        <ele>1636</ele>
        <time>2014-07-23T09:42:54Z</time>
      </trkpt>
      <trkpt lat="45.22418" lon="6.4078">
        <ele>1625</ele>
        <time>2014-07-23T09:42:58Z</time>
      </trkpt>
      <trkpt lat="45.22416" lon="6.40808">
        <ele>1648</ele>
        <time>2014-07-23T09:43:02Z</time>
      </trkpt>
      <trkpt lat="45.22414" lon="6.40837">
        <ele>1641</ele>
        <time>2014-07-23T09:43:07Z</time>
      </trkpt>
      <trkpt lat="45.22409" lon="6.40864">
        <ele>1651</ele>
        <time>2014-07-23T09:43:13Z</time>
      </trkpt>
      <trkpt lat="45.224" lon="6.4089">
        <ele>1652</ele>
        <time>2014-07-23T09:43:21Z</time>
      </trkpt>
      <trkpt lat="45.2239" lon="6.40911">
        <ele>1653</ele>
        <time>2014-07-23T09:43:33Z</time>
      </trkpt>
      <trkpt lat="45.22384" lon="6.40936">
        <ele>1653</ele>
        <time>2014-07-23T09:43:42Z</time>
      </trkpt>
      <trkpt lat="45.22381" lon="6.40963">
        <ele>1653</ele>
        <time>2014-07-23T09:43:50Z</time>
      </trkpt>
      <trkpt lat="45.2238" lon="6.4099">
        <ele>1651</ele>
        <time>2014-07-23T09:43:57Z</time>
      </trkpt>
      <trkpt lat="45.22378" lon="6.41015">
        <ele>1644</ele>
        <time>2014-07-23T09:44:03Z</time>
      </trkpt>
      <trkpt lat="45.22373" lon="6.41046">
        <ele>1643</ele>
        <time>2014-07-23T09:44:08Z</time>
      </trkpt>
      <trkpt lat="45.22373" lon="6.41077">
        <ele>1641</ele>
        <time>2014-07-23T09:44:12Z</time>
      </trkpt>
      <trkpt lat="45.22368" lon="6.41103">
        <ele>1631</ele>
        <time>2014-07-23T09:44:15Z</time>
      </trkpt>
      <trkpt lat="45.22356" lon="6.41129">
        <ele>1631</ele>
        <time>2014-07-23T09:44:19Z</time>
      </trkpt>
      <trkpt lat="45.22345" lon="6.41159">
        <ele>1636</ele>
        <time>2014-07-23T09:44:23Z</time>
      </trkpt>
      <trkpt lat="45.22338" lon="6.41184">
        <ele>1626</ele>
        <time>2014-07-23T09:44:27Z</time>
      </trkpt>
      <trkpt lat="45.22343" lon="6.41209">
        <ele>1618</ele>
        <time>2014-07-23T09:44:35Z</time>
      </trkpt>
      <trkpt lat="45.2234" lon="6.41236">
        <ele>1621</ele>
        <time>2014-07-23T09:47:01Z</time>
      </trkpt>
      <trkpt lat="45.22329" lon="6.41261">
        <ele>1634</ele>
        <time>2014-07-23T09:47:04Z</time>
      </trkpt>
      <trkpt lat="45.22316" lon="6.41289">
        <ele>1636</ele>
        <time>2014-07-23T09:47:07Z</time>
      </trkpt>
      <trkpt lat="45.22305" lon="6.4131">
        <ele>1635</ele>
        <time>2014-07-23T09:47:09Z</time>
      </trkpt>
      <trkpt lat="45.22292" lon="6.41338">
        <ele>1622</ele>
        <time>2014-07-23T09:47:12Z</time>
      </trkpt>
      <trkpt lat="45.22275" lon="6.41361">
        <ele>1624</ele>
        <time>2014-07-23T09:47:16Z</time>
      </trkpt>
      <trkpt lat="45.22259" lon="6.41378">
        <ele>1623</ele>
        <time>2014-07-23T09:47:20Z</time>
      </trkpt>
      <trkpt lat="45.22242" lon="6.41394">
        <ele>1637</ele>
        <time>2014-07-23T09:47:24Z</time>
      </trkpt>
      <trkpt lat="45.22225" lon="6.41413">
        <ele>1637</ele>
        <time>2014-07-23T09:47:28Z</time>
      </trkpt>
      <trkpt lat="45.22209" lon="6.41425">
        <ele>1625</ele>
        <time>2014-07-23T09:47:32Z</time>
      </trkpt>
      <trkpt lat="45.2219" lon="6.41438">
        <ele>1627</ele>
        <time>2014-07-23T09:47:37Z</time>
      </trkpt>
      <trkpt lat="45.22172" lon="6.41456">
        <ele>1625</ele>
        <time>2014-07-23T09:47:43Z</time>
      </trkpt>
      <trkpt lat="45.22156" lon="6.41469">
        <ele>1638</ele>
        <time>2014-07-23T09:47:49Z</time>
      </trkpt>
      <trkpt lat="45.22135" lon="6.41494">
        <ele>1637</ele>
        <time>2014-07-23T09:47:59Z</time>
      </trkpt>
      <trkpt lat="45.22112" lon="6.41517">
        <ele>1627</ele>
        <time>2014-07-23T09:48:09Z</time>
      </trkpt>
      <trkpt lat="45.22093" lon="6.41529">
        <ele>1628</ele>
        <time>2014-07-23T09:48:15Z</time>
      </trkpt>
      <trkpt lat="45.22076" lon="6.41548">
        <ele>1643</ele>
        <time>2014-07-23T09:48:22Z</time>
      </trkpt>
      <trkpt lat="45.22059" lon="6.41563">
        <ele>1643</ele>
        <time>2014-07-23T09:48:28Z</time>
      </trkpt>
      <trkpt lat="45.22044" lon="6.41579">
        <ele>1646</ele>
        <time>2014-07-23T09:48:38Z</time>
      </trkpt>
      <trkpt lat="45.22028" lon="6.41602">
        <ele>1639</ele>
        <time>2014-07-23T09:48:46Z</time>
      </trkpt>
      <trkpt lat="45.22016" lon="6.41625">
        <ele>1637</ele>
        <time>2014-07-23T09:48:52Z</time>
      </trkpt>
      <trkpt lat="45.22003" lon="6.41648">
        <ele>1635</ele>
        <time>2014-07-23T09:48:59Z</time>
      </trkpt>
      <trkpt lat="45.21988" lon="6.41666">
        <ele>1644</ele>
        <time>2014-07-23T09:49:04Z</time>
      </trkpt>
      <trkpt lat="45.21973" lon="6.41689">
        <ele>1635</ele>
        <time>2014-07-23T09:49:10Z</time>
      </trkpt>
      <trkpt lat="45.21956" lon="6.417">
        <ele>1636</ele>
        <time>2014-07-23T09:49:16Z</time>
      </trkpt>
      <trkpt lat="45.21934" lon="6.41711">
        <ele>1637</ele>
        <time>2014-07-23T09:49:24Z</time>
      </trkpt>
      <trkpt lat="45.21919" lon="6.4173">
        <ele>1635</ele>
        <time>2014-07-23T09:49:31Z</time>
      </trkpt>
      <trkpt lat="45.21905" lon="6.41748">
        <ele>1642</ele>
        <time>2014-07-23T09:49:37Z</time>
      </trkpt>
      <trkpt lat="45.21888" lon="6.41766">
        <ele>1637</ele>
        <time>2014-07-23T09:49:43Z</time>
      </trkpt>
      <trkpt lat="45.21874" lon="6.41784">
        <ele>1638</ele>
        <time>2014-07-23T09:49:48Z</time>
      </trkpt>
      <trkpt lat="45.21863" lon="6.41806">
        <ele>1637</ele>
        <time>2014-07-23T09:49:52Z</time>
      </trkpt>
      <trkpt lat="45.2185" lon="6.41827">
        <ele>1638</ele>
        <time>2014-07-23T09:49:56Z</time>
      </trkpt>
      <trkpt lat="45.21838" lon="6.41849">
        <ele>1630</ele>
        <time>2014-07-23T09:50:00Z</time>
      </trkpt>
      <trkpt lat="45.21825" lon="6.41869">
        <ele>1636</ele>
        <time>2014-07-23T09:50:04Z</time>
      </trkpt>
      <trkpt lat="45.21812" lon="6.41891">
        <ele>1633</ele>
        <time>2014-07-23T09:50:08Z</time>
      </trkpt>
      <trkpt lat="45.21796" lon="6.41907">
        <ele>1633</ele>
        <time>2014-07-23T09:50:12Z</time>
      </trkpt>
      <trkpt lat="45.21777" lon="6.41913">
        <ele>1635</ele>
        <time>2014-07-23T09:50:16Z</time>
      </trkpt>
      <trkpt lat="45.21758" lon="6.41917">
        <ele>1631</ele>
        <time>2014-07-23T09:50:20Z</time>
      </trkpt>
      <trkpt lat="45.21735" lon="6.41914">
        <ele>1642</ele>
        <time>2014-07-23T09:50:24Z</time>
      </trkpt>
      <trkpt lat="45.21716" lon="6.41913">
        <ele>1646</ele>
        <time>2014-07-23T09:50:27Z</time>
      </trkpt>
      <trkpt lat="45.21696" lon="6.41908">
        <ele>1648</ele>
        <time>2014-07-23T09:50:30Z</time>
      </trkpt>
      <trkpt lat="45.2169" lon="6.41946">
        <ele>1640</ele>
        <time>2014-07-23T09:50:38Z</time>
      </trkpt>
      <trkpt lat="45.217" lon="6.4197">
        <ele>1638</ele>
        <time>2014-07-23T09:50:44Z</time>
      </trkpt>
      <trkpt lat="45.21704" lon="6.42005">
        <ele>1634</ele>
        <time>2014-07-23T09:50:53Z</time>
      </trkpt>
      <trkpt lat="45.21702" lon="6.42036">
        <ele>1633</ele>
        <time>2014-07-23T09:51:01Z</time>
      </trkpt>
      <trkpt lat="45.21702" lon="6.42064">
        <ele>1633</ele>
        <time>2014-07-23T09:51:08Z</time>
      </trkpt>
      <trkpt lat="45.2169" lon="6.42089">
        <ele>1631</ele>
        <time>2014-07-23T09:51:18Z</time>
      </trkpt>
      <trkpt lat="45.21672" lon="6.42108">
        <ele>1631</ele>
        <time>2014-07-23T09:51:26Z</time>
      </trkpt>
      <trkpt lat="45.21655" lon="6.42124">
        <ele>1638</ele>
        <time>2014-07-23T09:51:33Z</time>
      </trkpt>
      <trkpt lat="45.21641" lon="6.42144">
        <ele>1638</ele>
        <time>2014-07-23T09:51:42Z</time>
      </trkpt>
      <trkpt lat="45.21624" lon="6.42159">
        <ele>1639</ele>
        <time>2014-07-23T09:51:50Z</time>
      </trkpt>
      <trkpt lat="45.21607" lon="6.4218">
        <ele>1639</ele>
        <time>2014-07-23T09:52:00Z</time>
      </trkpt>
      <trkpt lat="45.21604" lon="6.42206">
        <ele>1639</ele>
        <time>2014-07-23T09:52:09Z</time>
      </trkpt>
      <trkpt lat="45.21609" lon="6.42232">
        <ele>1639</ele>
        <time>2014-07-23T09:52:18Z</time>
      </trkpt>
      <trkpt lat="45.21619" lon="6.42257">
        <ele>1637</ele>
        <time>2014-07-23T09:52:27Z</time>
      </trkpt>
      <trkpt lat="45.21624" lon="6.42289">
        <ele>1636</ele>
        <time>2014-07-23T09:52:40Z</time>
      </trkpt>
      <trkpt lat="45.21618" lon="6.42321">
        <ele>1636</ele>
        <time>2014-07-23T09:53:10Z</time>
      </trkpt>
      <trkpt lat="45.21598" lon="6.42334">
        <ele>1637</ele>
        <time>2014-07-23T09:53:16Z</time>
      </trkpt>
      <trkpt lat="45.21581" lon="6.42348">
        <ele>1640</ele>
        <time>2014-07-23T09:53:22Z</time>
      </trkpt>
      <trkpt lat="45.21563" lon="6.42364">
        <ele>1640</ele>
        <time>2014-07-23T09:53:29Z</time>
      </trkpt>
      <trkpt lat="45.21544" lon="6.42369">
        <ele>1640</ele>
        <time>2014-07-23T09:53:35Z</time>
      </trkpt>
      <trkpt lat="45.21525" lon="6.4237">
        <ele>1641</ele>
        <time>2014-07-23T09:53:39Z</time>
      </trkpt>
      <trkpt lat="45.21504" lon="6.42369">
        <ele>1642</ele>
        <time>2014-07-23T09:53:43Z</time>
      </trkpt>
      <trkpt lat="45.21486" lon="6.42371">
        <ele>1644</ele>
        <time>2014-07-23T09:53:47Z</time>
      </trkpt>
      <trkpt lat="45.21462" lon="6.42368">
        <ele>1645</ele>
        <time>2014-07-23T09:53:55Z</time>
      </trkpt>
      <trkpt lat="45.2144" lon="6.42372">
        <ele>1645</ele>
        <time>2014-07-23T09:54:10Z</time>
      </trkpt>
      <trkpt lat="45.21421" lon="6.42377">
        <ele>1645</ele>
        <time>2014-07-23T09:54:24Z</time>
      </trkpt>
      <trkpt lat="45.21402" lon="6.42381">
        <ele>1652</ele>
        <time>2014-07-23T09:54:34Z</time>
      </trkpt>
      <trkpt lat="45.2138" lon="6.4237">
        <ele>1654</ele>
        <time>2014-07-23T09:55:03Z</time>
      </trkpt>
      <trkpt lat="45.2136" lon="6.42352">
        <ele>1656</ele>
        <time>2014-07-23T09:55:22Z</time>
      </trkpt>
      <trkpt lat="45.21346" lon="6.42335">
        <ele>1658</ele>
        <time>2014-07-23T09:55:39Z</time>
      </trkpt>
      <trkpt lat="45.21329" lon="6.42324">
        <ele>1661</ele>
        <time>2014-07-23T09:56:14Z</time>
      </trkpt>
      <trkpt lat="45.21314" lon="6.42307">
        <ele>1662</ele>
        <time>2014-07-23T09:56:25Z</time>
      </trkpt>
      <trkpt lat="45.21298" lon="6.42295">
        <ele>1662</ele>
        <time>2014-07-23T09:56:40Z</time>
      </trkpt>
      <trkpt lat="45.2128" lon="6.4228">
        <ele>1663</ele>
        <time>2014-07-23T09:56:54Z</time>
      </trkpt>
      <trkpt lat="45.2126" lon="6.42271">
        <ele>1664</ele>
        <time>2014-07-23T09:57:01Z</time>
      </trkpt>
      <trkpt lat="45.21237" lon="6.42271">
        <ele>1662</ele>
        <time>2014-07-23T09:57:06Z</time>
      </trkpt>
      <trkpt lat="45.21218" lon="6.4227">
        <ele>1661</ele>
        <time>2014-07-23T09:57:08Z</time>
      </trkpt>
      <trkpt lat="45.21193" lon="6.42268">
        <ele>1659</ele>
        <time>2014-07-23T09:57:11Z</time>
      </trkpt>
      <trkpt lat="45.21174" lon="6.42264">
        <ele>1657</ele>
        <time>2014-07-23T09:57:16Z</time>
      </trkpt>
      <trkpt lat="45.21164" lon="6.42239">
        <ele>1652</ele>
        <time>2014-07-23T09:57:30Z</time>
      </trkpt>
      <trkpt lat="45.21154" lon="6.42216">
        <ele>1650</ele>
        <time>2014-07-23T09:57:33Z</time>
      </trkpt>
      <trkpt lat="45.21137" lon="6.42202">
        <ele>1649</ele>
        <time>2014-07-23T09:57:36Z</time>
      </trkpt>
      <trkpt lat="45.21119" lon="6.42192">
        <ele>1648</ele>
        <time>2014-07-23T09:57:39Z</time>
      </trkpt>
      <trkpt lat="45.21098" lon="6.42184">
        <ele>1648</ele>
        <time>2014-07-23T09:57:45Z</time>
      </trkpt>
      <trkpt lat="45.21081" lon="6.42173">
        <ele>1644</ele>
        <time>2014-07-23T09:57:49Z</time>
      </trkpt>
      <trkpt lat="45.21062" lon="6.42152">
        <ele>1649</ele>
        <time>2014-07-23T09:57:53Z</time>
      </trkpt>
      <trkpt lat="45.21041" lon="6.42135">
        <ele>1648</ele>
        <time>2014-07-23T09:57:56Z</time>
      </trkpt>
      <trkpt lat="45.21015" lon="6.42132">
        <ele>1644</ele>
        <time>2014-07-23T09:57:59Z</time>
      </trkpt>
      <trkpt lat="45.20996" lon="6.42133">
        <ele>1628</ele>
        <time>2014-07-23T09:58:01Z</time>
      </trkpt>
      <trkpt lat="45.20975" lon="6.42127">
        <ele>1628</ele>
        <time>2014-07-23T09:58:04Z</time>
      </trkpt>
      <trkpt lat="45.20954" lon="6.42108">
        <ele>1628</ele>
        <time>2014-07-23T09:58:07Z</time>
      </trkpt>
      <trkpt lat="45.20937" lon="6.42081">
        <ele>1637</ele>
        <time>2014-07-23T09:58:10Z</time>
      </trkpt>
      <trkpt lat="45.20919" lon="6.42054">
        <ele>1640</ele>
        <time>2014-07-23T09:58:13Z</time>
      </trkpt>
      <trkpt lat="45.20896" lon="6.42044">
        <ele>1635</ele>
        <time>2014-07-23T09:58:16Z</time>
      </trkpt>
      <trkpt lat="45.20871" lon="6.42041">
        <ele>1634</ele>
        <time>2014-07-23T09:58:19Z</time>
      </trkpt>
      <trkpt lat="45.2085" lon="6.42041">
        <ele>1634</ele>
        <time>2014-07-23T09:58:22Z</time>
      </trkpt>
      <trkpt lat="45.20827" lon="6.42041">
        <ele>1629</ele>
        <time>2014-07-23T09:58:25Z</time>
      </trkpt>
      <trkpt lat="45.20808" lon="6.42035">
        <ele>1629</ele>
        <time>2014-07-23T09:58:33Z</time>
      </trkpt>
      <trkpt lat="45.20784" lon="6.42026">
        <ele>1629</ele>
        <time>2014-07-23T09:58:46Z</time>
      </trkpt>
      <trkpt lat="45.20766" lon="6.42014">
        <ele>1630</ele>
        <time>2014-07-23T09:59:12Z</time>
      </trkpt>
      <trkpt lat="45.20746" lon="6.41996">
        <ele>1634</ele>
        <time>2014-07-23T09:59:25Z</time>
      </trkpt>
      <trkpt lat="45.20765" lon="6.41995">
        <ele>1639</ele>
        <time>2014-07-23T09:59:38Z</time>
      </trkpt>
      <trkpt lat="45.20786" lon="6.42003">
        <ele>1631</ele>
        <time>2014-07-23T09:59:49Z</time>
      </trkpt>
      <trkpt lat="45.20783" lon="6.41977">
        <ele>1644</ele>
        <time>2014-07-23T10:00:05Z</time>
      </trkpt>
      <trkpt lat="45.20767" lon="6.41965">
        <ele>1644</ele>
        <time>2014-07-23T10:00:13Z</time>
      </trkpt>
      <trkpt lat="45.20749" lon="6.41949">
        <ele>1639</ele>
        <time>2014-07-23T10:00:24Z</time>
      </trkpt>
      <trkpt lat="45.20734" lon="6.41928">
        <ele>1642</ele>
        <time>2014-07-23T10:00:34Z</time>
      </trkpt>
      <trkpt lat="45.20718" lon="6.41915">
        <ele>1649</ele>
        <time>2014-07-23T10:00:43Z</time>
      </trkpt>
      <trkpt lat="45.20741" lon="6.4191">
        <ele>1650</ele>
        <time>2014-07-23T10:01:00Z</time>
      </trkpt>
      <trkpt lat="45.20765" lon="6.41917">
        <ele>1648</ele>
        <time>2014-07-23T10:01:16Z</time>
      </trkpt>
      <trkpt lat="45.20784" lon="6.41923">
        <ele>1649</ele>
        <time>2014-07-23T10:01:26Z</time>
      </trkpt>
      <trkpt lat="45.20802" lon="6.41928">
        <ele>1651</ele>
        <time>2014-07-23T10:01:37Z</time>
      </trkpt>
      <trkpt lat="45.20822" lon="6.41928">
        <ele>1655</ele>
        <time>2014-07-23T10:01:47Z</time>
      </trkpt>
      <trkpt lat="45.20846" lon="6.41926">
        <ele>1659</ele>
        <time>2014-07-23T10:02:00Z</time>
      </trkpt>
      <trkpt lat="45.20872" lon="6.4192">
        <ele>1659</ele>
        <time>2014-07-23T10:02:14Z</time>
      </trkpt>
      <trkpt lat="45.20896" lon="6.41917">
        <ele>1661</ele>
        <time>2014-07-23T10:02:27Z</time>
      </trkpt>
      <trkpt lat="45.20916" lon="6.41914">
        <ele>1668</ele>
        <time>2014-07-23T10:02:38Z</time>
      </trkpt>
      <trkpt lat="45.20937" lon="6.41914">
        <ele>1673</ele>
        <time>2014-07-23T10:02:50Z</time>
      </trkpt>
      <trkpt lat="45.20963" lon="6.41907">
        <ele>1676</ele>
        <time>2014-07-23T10:03:04Z</time>
      </trkpt>
      <trkpt lat="45.20986" lon="6.41898">
        <ele>1676</ele>
        <time>2014-07-23T10:03:15Z</time>
      </trkpt>
      <trkpt lat="45.21005" lon="6.41903">
        <ele>1679</ele>
        <time>2014-07-23T10:03:27Z</time>
      </trkpt>
      <trkpt lat="45.21021" lon="6.41914">
        <ele>1680</ele>
        <time>2014-07-23T10:03:37Z</time>
      </trkpt>
      <trkpt lat="45.21031" lon="6.41936">
        <ele>1678</ele>
        <time>2014-07-23T10:03:47Z</time>
      </trkpt>
      <trkpt lat="45.2103" lon="6.41963">
        <ele>1677</ele>
        <time>2014-07-23T10:03:57Z</time>
      </trkpt>
      <trkpt lat="45.21034" lon="6.41989">
        <ele>1677</ele>
        <time>2014-07-23T10:04:09Z</time>
      </trkpt>
      <trkpt lat="45.21044" lon="6.41967">
        <ele>1679</ele>
        <time>2014-07-23T10:04:35Z</time>
      </trkpt>
      <trkpt lat="45.21052" lon="6.41943">
        <ele>1680</ele>
        <time>2014-07-23T10:04:43Z</time>
      </trkpt>
      <trkpt lat="45.2106" lon="6.41917">
        <ele>1681</ele>
        <time>2014-07-23T10:04:52Z</time>
      </trkpt>
      <trkpt lat="45.21071" lon="6.41896">
        <ele>1684</ele>
        <time>2014-07-23T10:05:01Z</time>
      </trkpt>
      <trkpt lat="45.21079" lon="6.41872">
        <ele>1686</ele>
        <time>2014-07-23T10:05:09Z</time>
      </trkpt>
      <trkpt lat="45.21071" lon="6.41847">
        <ele>1688</ele>
        <time>2014-07-23T10:06:55Z</time>
      </trkpt>
      <trkpt lat="45.21053" lon="6.41839">
        <ele>1686</ele>
        <time>2014-07-23T10:07:03Z</time>
      </trkpt>
      <trkpt lat="45.21035" lon="6.41832">
        <ele>1697</ele>
        <time>2014-07-23T10:07:11Z</time>
      </trkpt>
      <trkpt lat="45.21017" lon="6.41826">
        <ele>1695</ele>
        <time>2014-07-23T10:07:19Z</time>
      </trkpt>
      <trkpt lat="45.20998" lon="6.4182">
        <ele>1691</ele>
        <time>2014-07-23T10:07:26Z</time>
      </trkpt>
      <trkpt lat="45.20979" lon="6.41818">
        <ele>1694</ele>
        <time>2014-07-23T10:07:33Z</time>
      </trkpt>
      <trkpt lat="45.20959" lon="6.41813">
        <ele>1695</ele>
        <time>2014-07-23T10:07:42Z</time>
      </trkpt>
      <trkpt lat="45.20941" lon="6.41804">
        <ele>1696</ele>
        <time>2014-07-23T10:07:51Z</time>
      </trkpt>
      <trkpt lat="45.20925" lon="6.41791">
        <ele>1699</ele>
        <time>2014-07-23T10:08:00Z</time>
      </trkpt>
      <trkpt lat="45.20905" lon="6.41785">
        <ele>1699</ele>
        <time>2014-07-23T10:08:08Z</time>
      </trkpt>
      <trkpt lat="45.20885" lon="6.41783">
        <ele>1698</ele>
        <time>2014-07-23T10:08:16Z</time>
      </trkpt>
      <trkpt lat="45.20866" lon="6.41783">
        <ele>1698</ele>
        <time>2014-07-23T10:08:23Z</time>
      </trkpt>
      <trkpt lat="45.20847" lon="6.41777">
        <ele>1699</ele>
        <time>2014-07-23T10:08:31Z</time>
      </trkpt>
      <trkpt lat="45.20828" lon="6.41774">
        <ele>1695</ele>
        <time>2014-07-23T10:08:40Z</time>
      </trkpt>
      <trkpt lat="45.2081" lon="6.41768">
        <ele>1694</ele>
        <time>2014-07-23T10:08:48Z</time>
      </trkpt>
      <trkpt lat="45.20797" lon="6.4175">
        <ele>1693</ele>
        <time>2014-07-23T10:08:55Z</time>
      </trkpt>
      <trkpt lat="45.20785" lon="6.41727">
        <ele>1705</ele>
        <time>2014-07-23T10:09:02Z</time>
      </trkpt>
      <trkpt lat="45.20772" lon="6.41706">
        <ele>1706</ele>
        <time>2014-07-23T10:09:11Z</time>
      </trkpt>
      <trkpt lat="45.2076" lon="6.41682">
        <ele>1707</ele>
        <time>2014-07-23T10:09:18Z</time>
      </trkpt>
      <trkpt lat="45.20744" lon="6.41668">
        <ele>1703</ele>
        <time>2014-07-23T10:09:23Z</time>
      </trkpt>
      <trkpt lat="45.20727" lon="6.41659">
        <ele>1707</ele>
        <time>2014-07-23T10:09:30Z</time>
      </trkpt>
      <trkpt lat="45.20713" lon="6.41642">
        <ele>1707</ele>
        <time>2014-07-23T10:10:28Z</time>
      </trkpt>
      <trkpt lat="45.207" lon="6.41623">
        <ele>1708</ele>
        <time>2014-07-23T10:12:16Z</time>
      </trkpt>
      <trkpt lat="45.20688" lon="6.41603">
        <ele>1709</ele>
        <time>2014-07-23T10:12:23Z</time>
      </trkpt>
      <trkpt lat="45.20675" lon="6.41584">
        <ele>1709</ele>
        <time>2014-07-23T10:12:31Z</time>
      </trkpt>
      <trkpt lat="45.20661" lon="6.41567">
        <ele>1711</ele>
        <time>2014-07-23T10:12:39Z</time>
      </trkpt>
      <trkpt lat="45.20646" lon="6.41552">
        <ele>1712</ele>
        <time>2014-07-23T10:12:48Z</time>
      </trkpt>
      <trkpt lat="45.20631" lon="6.41536">
        <ele>1713</ele>
        <time>2014-07-23T10:12:58Z</time>
      </trkpt>
      <trkpt lat="45.20616" lon="6.41522">
        <ele>1714</ele>
        <time>2014-07-23T10:13:09Z</time>
      </trkpt>
      <trkpt lat="45.20603" lon="6.41502">
        <ele>1715</ele>
        <time>2014-07-23T10:13:18Z</time>
      </trkpt>
      <trkpt lat="45.20593" lon="6.4148">
        <ele>1727</ele>
        <time>2014-07-23T10:13:29Z</time>
      </trkpt>
      <trkpt lat="45.20606" lon="6.41462">
        <ele>1732</ele>
        <time>2014-07-23T10:13:43Z</time>
      </trkpt>
      <trkpt lat="45.20624" lon="6.41453">
        <ele>1734</ele>
        <time>2014-07-23T10:13:57Z</time>
      </trkpt>
      <trkpt lat="45.20643" lon="6.41449">
        <ele>1736</ele>
        <time>2014-07-23T10:14:12Z</time>
      </trkpt>
      <trkpt lat="45.20662" lon="6.41448">
        <ele>1737</ele>
        <time>2014-07-23T10:14:25Z</time>
      </trkpt>
      <trkpt lat="45.20681" lon="6.41447">
        <ele>1741</ele>
        <time>2014-07-23T10:14:37Z</time>
      </trkpt>
      <trkpt lat="45.20674" lon="6.41423">
        <ele>1746</ele>
        <time>2014-07-23T10:15:06Z</time>
      </trkpt>
      <trkpt lat="45.20655" lon="6.41416">
        <ele>1755</ele>
        <time>2014-07-23T10:15:17Z</time>
      </trkpt>
      <trkpt lat="45.20637" lon="6.41413">
        <ele>1759</ele>
        <time>2014-07-23T10:15:28Z</time>
      </trkpt>
      <trkpt lat="45.20618" lon="6.41406">
        <ele>1760</ele>
        <time>2014-07-23T10:15:45Z</time>
      </trkpt>
      <trkpt lat="45.206" lon="6.41405">
        <ele>1757</ele>
        <time>2014-07-23T10:15:55Z</time>
      </trkpt>
      <trkpt lat="45.20583" lon="6.41399">
        <ele>1754</ele>
        <time>2014-07-23T10:16:11Z</time>
      </trkpt>
      <trkpt lat="45.20565" lon="6.41389">
        <ele>1758</ele>
        <time>2014-07-23T10:16:20Z</time>
      </trkpt>
      <trkpt lat="45.20551" lon="6.41372">
        <ele>1762</ele>
        <time>2014-07-23T10:16:33Z</time>
      </trkpt>
      <trkpt lat="45.20533" lon="6.41367">
        <ele>1763</ele>
        <time>2014-07-23T10:16:48Z</time>
      </trkpt>
      <trkpt lat="45.20514" lon="6.41365">
        <ele>1763</ele>
        <time>2014-07-23T10:17:00Z</time>
      </trkpt>
      <trkpt lat="45.20496" lon="6.4136">
        <ele>1759</ele>
        <time>2014-07-23T10:17:11Z</time>
      </trkpt>
      <trkpt lat="45.20477" lon="6.41353">
        <ele>1759</ele>
        <time>2014-07-23T10:17:25Z</time>
      </trkpt>
      <trkpt lat="45.2046" lon="6.41347">
        <ele>1757</ele>
        <time>2014-07-23T10:17:39Z</time>
      </trkpt>
      <trkpt lat="45.20444" lon="6.41333">
        <ele>1780</ele>
        <time>2014-07-23T10:17:53Z</time>
      </trkpt>
      <trkpt lat="45.20427" lon="6.41324">
        <ele>1776</ele>
        <time>2014-07-23T10:18:05Z</time>
      </trkpt>
      <trkpt lat="45.20413" lon="6.41307">
        <ele>1770</ele>
        <time>2014-07-23T10:18:18Z</time>
      </trkpt>
      <trkpt lat="45.20397" lon="6.41293">
        <ele>1772</ele>
        <time>2014-07-23T10:18:33Z</time>
      </trkpt>
      <trkpt lat="45.20379" lon="6.41285">
        <ele>1771</ele>
        <time>2014-07-23T10:18:47Z</time>
      </trkpt>
      <trkpt lat="45.20365" lon="6.41268">
        <ele>1772</ele>
        <time>2014-07-23T10:19:01Z</time>
      </trkpt>
      <trkpt lat="45.20352" lon="6.41248">
        <ele>1790</ele>
        <time>2014-07-23T10:19:14Z</time>
      </trkpt>
      <trkpt lat="45.2034" lon="6.41228">
        <ele>1793</ele>
        <time>2014-07-23T10:19:28Z</time>
      </trkpt>
      <trkpt lat="45.20327" lon="6.41207">
        <ele>1788</ele>
        <time>2014-07-23T10:19:42Z</time>
      </trkpt>
      <trkpt lat="45.20312" lon="6.41192">
        <ele>1791</ele>
        <time>2014-07-23T10:19:52Z</time>
      </trkpt>
      <trkpt lat="45.20295" lon="6.41186">
        <ele>1789</ele>
        <time>2014-07-23T10:20:01Z</time>
      </trkpt>
      <trkpt lat="45.20277" lon="6.41177">
        <ele>1789</ele>
        <time>2014-07-23T10:20:11Z</time>
      </trkpt>
      <trkpt lat="45.20261" lon="6.41166">
        <ele>1805</ele>
        <time>2014-07-23T10:20:22Z</time>
      </trkpt>
      <trkpt lat="45.20247" lon="6.4115">
        <ele>1801</ele>
        <time>2014-07-23T10:20:37Z</time>
      </trkpt>
      <trkpt lat="45.20231" lon="6.41135">
        <ele>1805</ele>
        <time>2014-07-23T10:20:47Z</time>
      </trkpt>
      <trkpt lat="45.20213" lon="6.41125">
        <ele>1807</ele>
        <time>2014-07-23T10:20:56Z</time>
      </trkpt>
      <trkpt lat="45.20193" lon="6.4112">
        <ele>1806</ele>
        <time>2014-07-23T10:21:07Z</time>
      </trkpt>
      <trkpt lat="45.20175" lon="6.41112">
        <ele>1807</ele>
        <time>2014-07-23T10:21:16Z</time>
      </trkpt>
      <trkpt lat="45.20155" lon="6.41114">
        <ele>1800</ele>
        <time>2014-07-23T10:21:26Z</time>
      </trkpt>
      <trkpt lat="45.20137" lon="6.41116">
        <ele>1798</ele>
        <time>2014-07-23T10:21:35Z</time>
      </trkpt>
      <trkpt lat="45.2012" lon="6.41107">
        <ele>1799</ele>
        <time>2014-07-23T10:21:45Z</time>
      </trkpt>
      <trkpt lat="45.20101" lon="6.411">
        <ele>1802</ele>
        <time>2014-07-23T10:21:55Z</time>
      </trkpt>
      <trkpt lat="45.20081" lon="6.41095">
        <ele>1808</ele>
        <time>2014-07-23T10:22:06Z</time>
      </trkpt>
      <trkpt lat="45.20062" lon="6.41096">
        <ele>1807</ele>
        <time>2014-07-23T10:22:17Z</time>
      </trkpt>
      <trkpt lat="45.20045" lon="6.41107">
        <ele>1805</ele>
        <time>2014-07-23T10:27:21Z</time>
      </trkpt>
      <trkpt lat="45.20028" lon="6.41119">
        <ele>1805</ele>
        <time>2014-07-23T10:27:28Z</time>
      </trkpt>
      <trkpt lat="45.20013" lon="6.41138">
        <ele>1802</ele>
        <time>2014-07-23T10:27:37Z</time>
      </trkpt>
      <trkpt lat="45.19998" lon="6.41157">
        <ele>1799</ele>
        <time>2014-07-23T10:27:45Z</time>
      </trkpt>
      <trkpt lat="45.19979" lon="6.41157">
        <ele>1801</ele>
        <time>2014-07-23T10:27:54Z</time>
      </trkpt>
      <trkpt lat="45.19968" lon="6.41135">
        <ele>1804</ele>
        <time>2014-07-23T10:28:02Z</time>
      </trkpt>
      <trkpt lat="45.19952" lon="6.41119">
        <ele>1806</ele>
        <time>2014-07-23T10:28:10Z</time>
      </trkpt>
      <trkpt lat="45.19934" lon="6.41112">
        <ele>1807</ele>
        <time>2014-07-23T10:28:17Z</time>
      </trkpt>
      <trkpt lat="45.19916" lon="6.41101">
        <ele>1802</ele>
        <time>2014-07-23T10:28:24Z</time>
      </trkpt>
      <trkpt lat="45.19901" lon="6.41088">
        <ele>1803</ele>
        <time>2014-07-23T10:28:30Z</time>
      </trkpt>
      <trkpt lat="45.19884" lon="6.4107">
        <ele>1814</ele>
        <time>2014-07-23T10:28:37Z</time>
      </trkpt>
      <trkpt lat="45.1987" lon="6.41052">
        <ele>1814</ele>
        <time>2014-07-23T10:28:44Z</time>
      </trkpt>
      <trkpt lat="45.19857" lon="6.4103">
        <ele>1816</ele>
        <time>2014-07-23T10:28:51Z</time>
      </trkpt>
      <trkpt lat="45.19847" lon="6.41007">
        <ele>1817</ele>
        <time>2014-07-23T10:28:59Z</time>
      </trkpt>
      <trkpt lat="45.19831" lon="6.40992">
        <ele>1814</ele>
        <time>2014-07-23T10:29:06Z</time>
      </trkpt>
      <trkpt lat="45.19815" lon="6.40977">
        <ele>1812</ele>
        <time>2014-07-23T10:29:13Z</time>
      </trkpt>
      <trkpt lat="45.19799" lon="6.40963">
        <ele>1810</ele>
        <time>2014-07-23T10:29:21Z</time>
      </trkpt>
      <trkpt lat="45.19785" lon="6.40945">
        <ele>1809</ele>
        <time>2014-07-23T10:29:30Z</time>
      </trkpt>
      <trkpt lat="45.19776" lon="6.40922">
        <ele>1809</ele>
        <time>2014-07-23T10:29:39Z</time>
      </trkpt>
      <trkpt lat="45.19765" lon="6.40901">
        <ele>1819</ele>
        <time>2014-07-23T10:29:47Z</time>
      </trkpt>
      <trkpt lat="45.19756" lon="6.40879">
        <ele>1824</ele>
        <time>2014-07-23T10:29:54Z</time>
      </trkpt>
      <trkpt lat="45.19746" lon="6.40855">
        <ele>1813</ele>
        <time>2014-07-23T10:30:02Z</time>
      </trkpt>
      <trkpt lat="45.19736" lon="6.40834">
        <ele>1816</ele>
        <time>2014-07-23T10:30:09Z</time>
      </trkpt>
      <trkpt lat="45.19725" lon="6.40813">
        <ele>1824</ele>
        <time>2014-07-23T10:30:17Z</time>
      </trkpt>
      <trkpt lat="45.19718" lon="6.40786">
        <ele>1826</ele>
        <time>2014-07-23T10:30:26Z</time>
      </trkpt>
      <trkpt lat="45.19709" lon="6.40764">
        <ele>1827</ele>
        <time>2014-07-23T10:30:36Z</time>
      </trkpt>
      <trkpt lat="45.19696" lon="6.40743">
        <ele>1838</ele>
        <time>2014-07-23T10:30:45Z</time>
      </trkpt>
      <trkpt lat="45.19681" lon="6.40724">
        <ele>1837</ele>
        <time>2014-07-23T10:30:54Z</time>
      </trkpt>
      <trkpt lat="45.19666" lon="6.40709">
        <ele>1831</ele>
        <time>2014-07-23T10:31:03Z</time>
      </trkpt>
      <trkpt lat="45.19653" lon="6.4069">
        <ele>1833</ele>
        <time>2014-07-23T10:31:11Z</time>
      </trkpt>
      <trkpt lat="45.19639" lon="6.40669">
        <ele>1834</ele>
        <time>2014-07-23T10:31:21Z</time>
      </trkpt>
      <trkpt lat="45.19635" lon="6.40643">
        <ele>1841</ele>
        <time>2014-07-23T10:31:31Z</time>
      </trkpt>
      <trkpt lat="45.19631" lon="6.40618">
        <ele>1843</ele>
        <time>2014-07-23T10:31:45Z</time>
      </trkpt>
      <trkpt lat="45.19649" lon="6.40627">
        <ele>1843</ele>
        <time>2014-07-23T10:32:10Z</time>
      </trkpt>
      <trkpt lat="45.19666" lon="6.40635">
        <ele>1842</ele>
        <time>2014-07-23T10:34:38Z</time>
      </trkpt>
      <trkpt lat="45.19684" lon="6.40645">
        <ele>1855</ele>
        <time>2014-07-23T10:34:48Z</time>
      </trkpt>
      <trkpt lat="45.19699" lon="6.40658">
        <ele>1858</ele>
        <time>2014-07-23T10:35:03Z</time>
      </trkpt>
      <trkpt lat="45.19707" lon="6.40681">
        <ele>1847</ele>
        <time>2014-07-23T10:35:23Z</time>
      </trkpt>
      <trkpt lat="45.19722" lon="6.40696">
        <ele>1849</ele>
        <time>2014-07-23T10:35:41Z</time>
      </trkpt>
      <trkpt lat="45.19738" lon="6.40709">
        <ele>1849</ele>
        <time>2014-07-23T10:35:56Z</time>
      </trkpt>
      <trkpt lat="45.19755" lon="6.4072">
        <ele>1866</ele>
        <time>2014-07-23T10:36:14Z</time>
      </trkpt>
      <trkpt lat="45.19774" lon="6.40729">
        <ele>1867</ele>
        <time>2014-07-23T10:36:26Z</time>
      </trkpt>
      <trkpt lat="45.19792" lon="6.40737">
        <ele>1870</ele>
        <time>2014-07-23T10:36:41Z</time>
      </trkpt>
      <trkpt lat="45.19807" lon="6.40751">
        <ele>1858</ele>
        <time>2014-07-23T10:36:54Z</time>
      </trkpt>
      <trkpt lat="45.19824" lon="6.40763">
        <ele>1863</ele>
        <time>2014-07-23T10:37:06Z</time>
      </trkpt>
      <trkpt lat="45.19842" lon="6.40769">
        <ele>1873</ele>
        <time>2014-07-23T10:37:21Z</time>
      </trkpt>
      <trkpt lat="45.19859" lon="6.40777">
        <ele>1873</ele>
        <time>2014-07-23T10:37:40Z</time>
      </trkpt>
      <trkpt lat="45.19878" lon="6.4078">
        <ele>1875</ele>
        <time>2014-07-23T10:37:55Z</time>
      </trkpt>
      <trkpt lat="45.19896" lon="6.40782">
        <ele>1877</ele>
        <time>2014-07-23T10:38:03Z</time>
      </trkpt>
      <trkpt lat="45.19914" lon="6.40785">
        <ele>1878</ele>
        <time>2014-07-23T10:38:15Z</time>
      </trkpt>
      <trkpt lat="45.1993" lon="6.408">
        <ele>1888</ele>
        <time>2014-07-23T10:38:27Z</time>
      </trkpt>
      <trkpt lat="45.19944" lon="6.40817">
        <ele>1887</ele>
        <time>2014-07-23T10:38:42Z</time>
      </trkpt>
      <trkpt lat="45.19961" lon="6.40831">
        <ele>1889</ele>
        <time>2014-07-23T10:38:57Z</time>
      </trkpt>
      <trkpt lat="45.19978" lon="6.40845">
        <ele>1881</ele>
        <time>2014-07-23T10:39:09Z</time>
      </trkpt>
      <trkpt lat="45.19993" lon="6.4086">
        <ele>1881</ele>
        <time>2014-07-23T10:39:23Z</time>
      </trkpt>
      <trkpt lat="45.20009" lon="6.40875">
        <ele>1888</ele>
        <time>2014-07-23T10:39:39Z</time>
      </trkpt>
      <trkpt lat="45.20028" lon="6.40867">
        <ele>1889</ele>
        <time>2014-07-23T10:39:52Z</time>
      </trkpt>
      <trkpt lat="45.20045" lon="6.40857">
        <ele>1891</ele>
        <time>2014-07-23T10:40:04Z</time>
      </trkpt>
      <trkpt lat="45.20062" lon="6.40849">
        <ele>1894</ele>
        <time>2014-07-23T10:40:15Z</time>
      </trkpt>
      <trkpt lat="45.20082" lon="6.4085">
        <ele>1896</ele>
        <time>2014-07-23T10:40:29Z</time>
      </trkpt>
      <trkpt lat="45.201" lon="6.40854">
        <ele>1897</ele>
        <time>2014-07-23T10:40:42Z</time>
      </trkpt>
      <trkpt lat="45.20119" lon="6.40857">
        <ele>1897</ele>
        <time>2014-07-23T10:40:58Z</time>
      </trkpt>
      <trkpt lat="45.20137" lon="6.40855">
        <ele>1898</ele>
        <time>2014-07-23T10:44:21Z</time>
      </trkpt>
      <trkpt lat="45.20154" lon="6.40843">
        <ele>1902</ele>
        <time>2014-07-23T10:44:32Z</time>
      </trkpt>
      <trkpt lat="45.20172" lon="6.40837">
        <ele>1906</ele>
        <time>2014-07-23T10:44:39Z</time>
      </trkpt>
      <trkpt lat="45.20191" lon="6.40834">
        <ele>1904</ele>
        <time>2014-07-23T10:44:50Z</time>
      </trkpt>
      <trkpt lat="45.2021" lon="6.40833">
        <ele>1917</ele>
        <time>2014-07-23T10:44:59Z</time>
      </trkpt>
      <trkpt lat="45.20229" lon="6.40836">
        <ele>1907</ele>
        <time>2014-07-23T10:45:07Z</time>
      </trkpt>
      <trkpt lat="45.20248" lon="6.40835">
        <ele>1913</ele>
        <time>2014-07-23T10:45:17Z</time>
      </trkpt>
      <trkpt lat="45.20267" lon="6.40836">
        <ele>1914</ele>
        <time>2014-07-23T10:45:30Z</time>
      </trkpt>
      <trkpt lat="45.20284" lon="6.40845">
        <ele>1915</ele>
        <time>2014-07-23T10:45:41Z</time>
      </trkpt>
      <trkpt lat="45.20303" lon="6.40851">
        <ele>1918</ele>
        <time>2014-07-23T10:46:00Z</time>
      </trkpt>
      <trkpt lat="45.20319" lon="6.40864">
        <ele>1918</ele>
        <time>2014-07-23T10:46:13Z</time>
      </trkpt>
      <trkpt lat="45.20339" lon="6.4087">
        <ele>1926</ele>
        <time>2014-07-23T10:46:23Z</time>
      </trkpt>
      <trkpt lat="45.20356" lon="6.40879">
        <ele>1925</ele>
        <time>2014-07-23T10:46:35Z</time>
      </trkpt>
      <trkpt lat="45.20374" lon="6.40884">
        <ele>1926</ele>
        <time>2014-07-23T10:46:49Z</time>
      </trkpt>
      <trkpt lat="45.20393" lon="6.40884">
        <ele>1927</ele>
        <time>2014-07-23T10:47:05Z</time>
      </trkpt>
      <trkpt lat="45.2041" lon="6.40877">
        <ele>1928</ele>
        <time>2014-07-23T10:47:17Z</time>
      </trkpt>
      <trkpt lat="45.20428" lon="6.4087">
        <ele>1935</ele>
        <time>2014-07-23T10:47:32Z</time>
      </trkpt>
      <trkpt lat="45.20446" lon="6.40864">
        <ele>1937</ele>
        <time>2014-07-23T10:47:44Z</time>
      </trkpt>
      <trkpt lat="45.20464" lon="6.40853">
        <ele>1938</ele>
        <time>2014-07-23T10:47:59Z</time>
      </trkpt>
      <trkpt lat="45.20482" lon="6.40856">
        <ele>1939</ele>
        <time>2014-07-23T10:48:16Z</time>
      </trkpt>
      <trkpt lat="45.20501" lon="6.40863">
        <ele>1942</ele>
        <time>2014-07-23T10:48:28Z</time>
      </trkpt>
      <trkpt lat="45.20517" lon="6.4085">
        <ele>1944</ele>
        <time>2014-07-23T10:48:46Z</time>
      </trkpt>
      <trkpt lat="45.20526" lon="6.40827">
        <ele>1954</ele>
        <time>2014-07-23T10:48:59Z</time>
      </trkpt>
      <trkpt lat="45.20528" lon="6.40802">
        <ele>1957</ele>
        <time>2014-07-23T10:49:10Z</time>
      </trkpt>
      <trkpt lat="45.20546" lon="6.40812">
        <ele>1956</ele>
        <time>2014-07-23T10:49:27Z</time>
      </trkpt>
      <trkpt lat="45.20563" lon="6.40822">
        <ele>1956</ele>
        <time>2014-07-23T10:49:43Z</time>
      </trkpt>
      <trkpt lat="45.20584" lon="6.40821">
        <ele>1957</ele>
        <time>2014-07-23T10:54:54Z</time>
      </trkpt>
      <trkpt lat="45.20602" lon="6.40818">
        <ele>1960</ele>
        <time>2014-07-23T10:55:03Z</time>
      </trkpt>
      <trkpt lat="45.20621" lon="6.40822">
        <ele>1961</ele>
        <time>2014-07-23T10:55:13Z</time>
      </trkpt>
      <trkpt lat="45.20638" lon="6.40831">
        <ele>1960</ele>
        <time>2014-07-23T10:55:20Z</time>
      </trkpt>
      <trkpt lat="45.20658" lon="6.40831">
        <ele>1957</ele>
        <time>2014-07-23T10:55:28Z</time>
      </trkpt>
      <trkpt lat="45.20676" lon="6.40825">
        <ele>1960</ele>
        <time>2014-07-23T10:55:34Z</time>
      </trkpt>
      <trkpt lat="45.20696" lon="6.40834">
        <ele>1950</ele>
        <time>2014-07-23T10:55:39Z</time>
      </trkpt>
      <trkpt lat="45.20714" lon="6.40841">
        <ele>1950</ele>
        <time>2014-07-23T10:55:43Z</time>
      </trkpt>
      <trkpt lat="45.20733" lon="6.40849">
        <ele>1951</ele>
        <time>2014-07-23T10:55:48Z</time>
      </trkpt>
      <trkpt lat="45.20754" lon="6.40854">
        <ele>1956</ele>
        <time>2014-07-23T10:55:53Z</time>
      </trkpt>
      <trkpt lat="45.20775" lon="6.40862">
        <ele>1956</ele>
        <time>2014-07-23T10:55:59Z</time>
      </trkpt>
      <trkpt lat="45.20794" lon="6.40869">
        <ele>1956</ele>
        <time>2014-07-23T10:56:04Z</time>
      </trkpt>
      <trkpt lat="45.20814" lon="6.40875">
        <ele>1957</ele>
        <time>2014-07-23T10:56:09Z</time>
      </trkpt>
      <trkpt lat="45.20835" lon="6.40884">
        <ele>1959</ele>
        <time>2014-07-23T10:56:15Z</time>
      </trkpt>
      <trkpt lat="45.20854" lon="6.40895">
        <ele>1958</ele>
        <time>2014-07-23T10:56:21Z</time>
      </trkpt>
      <trkpt lat="45.20873" lon="6.40899">
        <ele>1959</ele>
        <time>2014-07-23T10:56:26Z</time>
      </trkpt>
      <trkpt lat="45.20892" lon="6.40904">
        <ele>1958</ele>
        <time>2014-07-23T10:56:30Z</time>
      </trkpt>
      <trkpt lat="45.20911" lon="6.40915">
        <ele>1955</ele>
        <time>2014-07-23T10:56:35Z</time>
      </trkpt>
      <trkpt lat="45.20929" lon="6.40914">
        <ele>1956</ele>
        <time>2014-07-23T10:56:41Z</time>
      </trkpt>
      <trkpt lat="45.20946" lon="6.40902">
        <ele>1957</ele>
        <time>2014-07-23T10:56:45Z</time>
      </trkpt>
      <trkpt lat="45.20968" lon="6.40898">
        <ele>1957</ele>
        <time>2014-07-23T10:56:48Z</time>
      </trkpt>
      <trkpt lat="45.20986" lon="6.40906">
        <ele>1953</ele>
        <time>2014-07-23T10:56:51Z</time>
      </trkpt>
      <trkpt lat="45.21006" lon="6.4091">
        <ele>1950</ele>
        <time>2014-07-23T10:56:55Z</time>
      </trkpt>
      <trkpt lat="45.21026" lon="6.40914">
        <ele>1953</ele>
        <time>2014-07-23T10:56:59Z</time>
      </trkpt>
      <trkpt lat="45.21045" lon="6.40921">
        <ele>1947</ele>
        <time>2014-07-23T10:57:03Z</time>
      </trkpt>
      <trkpt lat="45.21069" lon="6.40924">
        <ele>1949</ele>
        <time>2014-07-23T10:57:07Z</time>
      </trkpt>
      <trkpt lat="45.21088" lon="6.40926">
        <ele>1952</ele>
        <time>2014-07-23T10:57:11Z</time>
      </trkpt>
      <trkpt lat="45.21108" lon="6.40931">
        <ele>1952</ele>
        <time>2014-07-23T10:57:17Z</time>
      </trkpt>
      <trkpt lat="45.21128" lon="6.40939">
        <ele>1952</ele>
        <time>2014-07-23T10:57:24Z</time>
      </trkpt>
      <trkpt lat="45.21144" lon="6.40956">
        <ele>1952</ele>
        <time>2014-07-23T10:57:29Z</time>
      </trkpt>
      <trkpt lat="45.21158" lon="6.40975">
        <ele>1951</ele>
        <time>2014-07-23T10:57:34Z</time>
      </trkpt>
      <trkpt lat="45.21177" lon="6.40984">
        <ele>1949</ele>
        <time>2014-07-23T10:57:41Z</time>
      </trkpt>
      <trkpt lat="45.21177" lon="6.40953">
        <ele>1950</ele>
        <time>2014-07-23T10:57:51Z</time>
      </trkpt>
      <trkpt lat="45.21161" lon="6.40925">
        <ele>1956</ele>
        <time>2014-07-23T10:58:05Z</time>
      </trkpt>
      <trkpt lat="45.21164" lon="6.40899">
        <ele>1960</ele>
        <time>2014-07-23T10:58:17Z</time>
      </trkpt>
      <trkpt lat="45.21172" lon="6.40875">
        <ele>1961</ele>
        <time>2014-07-23T10:58:26Z</time>
      </trkpt>
      <trkpt lat="45.2117" lon="6.40838">
        <ele>1966</ele>
        <time>2014-07-23T10:58:39Z</time>
      </trkpt>
      <trkpt lat="45.21165" lon="6.40811">
        <ele>1974</ele>
        <time>2014-07-23T10:58:49Z</time>
      </trkpt>
      <trkpt lat="45.21146" lon="6.40788">
        <ele>1978</ele>
        <time>2014-07-23T10:59:07Z</time>
      </trkpt>
      <trkpt lat="45.2112" lon="6.40783">
        <ele>1979</ele>
        <time>2014-07-23T10:59:24Z</time>
      </trkpt>
      <trkpt lat="45.21101" lon="6.40774">
        <ele>1981</ele>
        <time>2014-07-23T10:59:37Z</time>
      </trkpt>
      <trkpt lat="45.21079" lon="6.40763">
        <ele>1986</ele>
        <time>2014-07-23T10:59:56Z</time>
      </trkpt>
      <trkpt lat="45.21054" lon="6.40755">
        <ele>1985</ele>
        <time>2014-07-23T11:00:15Z</time>
      </trkpt>
      <trkpt lat="45.21029" lon="6.4076">
        <ele>1986</ele>
        <time>2014-07-23T11:00:36Z</time>
      </trkpt>
      <trkpt lat="45.21005" lon="6.40773">
        <ele>1986</ele>
        <time>2014-07-23T11:00:56Z</time>
      </trkpt>
      <trkpt lat="45.20982" lon="6.40784">
        <ele>1985</ele>
        <time>2014-07-23T11:01:15Z</time>
      </trkpt>
      <trkpt lat="45.20958" lon="6.40783">
        <ele>1986</ele>
        <time>2014-07-23T11:01:32Z</time>
      </trkpt>
      <trkpt lat="45.20932" lon="6.40774">
        <ele>1990</ele>
        <time>2014-07-23T11:01:50Z</time>
      </trkpt>
      <trkpt lat="45.20914" lon="6.40764">
        <ele>1995</ele>
        <time>2014-07-23T11:02:04Z</time>
      </trkpt>
      <trkpt lat="45.20895" lon="6.40756">
        <ele>1993</ele>
        <time>2014-07-23T11:02:17Z</time>
      </trkpt>
      <trkpt lat="45.20877" lon="6.40751">
        <ele>1991</ele>
        <time>2014-07-23T11:02:32Z</time>
      </trkpt>
      <trkpt lat="45.2086" lon="6.4074">
        <ele>2007</ele>
        <time>2014-07-23T11:02:46Z</time>
      </trkpt>
      <trkpt lat="45.20844" lon="6.40728">
        <ele>2007</ele>
        <time>2014-07-23T11:02:58Z</time>
      </trkpt>
      <trkpt lat="45.20825" lon="6.40725">
        <ele>2004</ele>
        <time>2014-07-23T11:03:13Z</time>
      </trkpt>
      <trkpt lat="45.20807" lon="6.40716">
        <ele>2005</ele>
        <time>2014-07-23T11:03:25Z</time>
      </trkpt>
      <trkpt lat="45.20793" lon="6.40699">
        <ele>2007</ele>
        <time>2014-07-23T11:03:35Z</time>
      </trkpt>
      <trkpt lat="45.20781" lon="6.40677">
        <ele>2009</ele>
        <time>2014-07-23T11:03:47Z</time>
      </trkpt>
      <trkpt lat="45.20764" lon="6.40662">
        <ele>2020</ele>
        <time>2014-07-23T11:03:58Z</time>
      </trkpt>
      <trkpt lat="45.20747" lon="6.4065">
        <ele>2017</ele>
        <time>2014-07-23T11:04:09Z</time>
      </trkpt>
      <trkpt lat="45.20731" lon="6.40638">
        <ele>2020</ele>
        <time>2014-07-23T11:04:20Z</time>
      </trkpt>
      <trkpt lat="45.20714" lon="6.40626">
        <ele>2021</ele>
        <time>2014-07-23T11:04:31Z</time>
      </trkpt>
      <trkpt lat="45.20694" lon="6.40626">
        <ele>2020</ele>
        <time>2014-07-23T11:04:44Z</time>
      </trkpt>
      <trkpt lat="45.20677" lon="6.40618">
        <ele>2021</ele>
        <time>2014-07-23T11:04:55Z</time>
      </trkpt>
      <trkpt lat="45.2066" lon="6.40609">
        <ele>2018</ele>
        <time>2014-07-23T11:05:05Z</time>
      </trkpt>
      <trkpt lat="45.20642" lon="6.40599">
        <ele>2019</ele>
        <time>2014-07-23T11:05:13Z</time>
      </trkpt>
      <trkpt lat="45.20624" lon="6.4059">
        <ele>2018</ele>
        <time>2014-07-23T11:05:22Z</time>
      </trkpt>
      <trkpt lat="45.20605" lon="6.40582">
        <ele>2031</ele>
        <time>2014-07-23T11:05:32Z</time>
      </trkpt>
      <trkpt lat="45.20586" lon="6.40578">
        <ele>2027</ele>
        <time>2014-07-23T11:05:43Z</time>
      </trkpt>
      <trkpt lat="45.20567" lon="6.40576">
        <ele>2027</ele>
        <time>2014-07-23T11:05:54Z</time>
      </trkpt>
      <trkpt lat="45.2055" lon="6.40564">
        <ele>2027</ele>
        <time>2014-07-23T11:06:06Z</time>
      </trkpt>
      <trkpt lat="45.20534" lon="6.40551">
        <ele>2027</ele>
        <time>2014-07-23T11:06:16Z</time>
      </trkpt>
      <trkpt lat="45.20517" lon="6.4054">
        <ele>2028</ele>
        <time>2014-07-23T11:06:26Z</time>
      </trkpt>
      <trkpt lat="45.20501" lon="6.40527">
        <ele>2030</ele>
        <time>2014-07-23T11:06:36Z</time>
      </trkpt>
      <trkpt lat="45.20484" lon="6.40514">
        <ele>2027</ele>
        <time>2014-07-23T11:06:47Z</time>
      </trkpt>
      <trkpt lat="45.20467" lon="6.40504">
        <ele>2026</ele>
        <time>2014-07-23T11:07:00Z</time>
      </trkpt>
      <trkpt lat="45.20449" lon="6.40498">
        <ele>2036</ele>
        <time>2014-07-23T11:07:13Z</time>
      </trkpt>
      <trkpt lat="45.20432" lon="6.40484">
        <ele>2036</ele>
        <time>2014-07-23T11:07:24Z</time>
      </trkpt>
      <trkpt lat="45.20416" lon="6.4047">
        <ele>2033</ele>
        <time>2014-07-23T11:07:37Z</time>
      </trkpt>
      <trkpt lat="45.20435" lon="6.40462">
        <ele>2039</ele>
        <time>2014-07-23T11:09:24Z</time>
      </trkpt>
      <trkpt lat="45.20453" lon="6.40454">
        <ele>2040</ele>
        <time>2014-07-23T11:09:34Z</time>
      </trkpt>
      <trkpt lat="45.20472" lon="6.40447">
        <ele>2041</ele>
        <time>2014-07-23T11:09:46Z</time>
      </trkpt>
      <trkpt lat="45.2049" lon="6.4044">
        <ele>2043</ele>
        <time>2014-07-23T11:09:58Z</time>
      </trkpt>
      <trkpt lat="45.2051" lon="6.40433">
        <ele>2047</ele>
        <time>2014-07-23T11:10:09Z</time>
      </trkpt>
      <trkpt lat="45.20528" lon="6.40429">
        <ele>2047</ele>
        <time>2014-07-23T11:10:18Z</time>
      </trkpt>
      <trkpt lat="45.20544" lon="6.4042">
        <ele>2048</ele>
        <time>2014-07-23T11:10:32Z</time>
      </trkpt>
      <trkpt lat="45.20562" lon="6.40416">
        <ele>2061</ele>
        <time>2014-07-23T11:10:43Z</time>
      </trkpt>
      <trkpt lat="45.2058" lon="6.40411">
        <ele>2058</ele>
        <time>2014-07-23T11:10:54Z</time>
      </trkpt>
      <trkpt lat="45.20599" lon="6.4041">
        <ele>2065</ele>
        <time>2014-07-23T11:11:05Z</time>
      </trkpt>
      <trkpt lat="45.20618" lon="6.40413">
        <ele>2069</ele>
        <time>2014-07-23T11:11:17Z</time>
      </trkpt>
      <trkpt lat="45.20636" lon="6.40423">
        <ele>2059</ele>
        <time>2014-07-23T11:11:30Z</time>
      </trkpt>
      <trkpt lat="45.20654" lon="6.40435">
        <ele>2060</ele>
        <time>2014-07-23T11:11:42Z</time>
      </trkpt>
      <trkpt lat="45.20671" lon="6.40446">
        <ele>2065</ele>
        <time>2014-07-23T11:11:55Z</time>
      </trkpt>
      <trkpt lat="45.20689" lon="6.40453">
        <ele>2064</ele>
        <time>2014-07-23T11:12:05Z</time>
      </trkpt>
      <trkpt lat="45.20706" lon="6.40464">
        <ele>2064</ele>
        <time>2014-07-23T11:12:17Z</time>
      </trkpt>
      <trkpt lat="45.20724" lon="6.40468">
        <ele>2065</ele>
        <time>2014-07-23T11:12:28Z</time>
      </trkpt>
      <trkpt lat="45.20742" lon="6.40469">
        <ele>2065</ele>
        <time>2014-07-23T11:12:40Z</time>
      </trkpt>
      <trkpt lat="45.20761" lon="6.40462">
        <ele>2072</ele>
        <time>2014-07-23T11:12:53Z</time>
      </trkpt>
      <trkpt lat="45.20779" lon="6.40453">
        <ele>2073</ele>
        <time>2014-07-23T11:13:05Z</time>
      </trkpt>
      <trkpt lat="45.20798" lon="6.40452">
        <ele>2074</ele>
        <time>2014-07-23T11:13:16Z</time>
      </trkpt>
      <trkpt lat="45.20816" lon="6.40444">
        <ele>2076</ele>
        <time>2014-07-23T11:13:28Z</time>
      </trkpt>
      <trkpt lat="45.20833" lon="6.40433">
        <ele>2079</ele>
        <time>2014-07-23T11:13:38Z</time>
      </trkpt>
      <trkpt lat="45.20851" lon="6.40428">
        <ele>2080</ele>
        <time>2014-07-23T11:13:48Z</time>
      </trkpt>
      <trkpt lat="45.20869" lon="6.40421">
        <ele>2079</ele>
        <time>2014-07-23T11:14:00Z</time>
      </trkpt>
      <trkpt lat="45.20887" lon="6.4042">
        <ele>2079</ele>
        <time>2014-07-23T11:14:11Z</time>
      </trkpt>
      <trkpt lat="45.20906" lon="6.40415">
        <ele>2090</ele>
        <time>2014-07-23T11:14:22Z</time>
      </trkpt>
      <trkpt lat="45.20924" lon="6.40414">
        <ele>2089</ele>
        <time>2014-07-23T11:14:32Z</time>
      </trkpt>
      <trkpt lat="45.20943" lon="6.40418">
        <ele>2080</ele>
        <time>2014-07-23T11:14:43Z</time>
      </trkpt>
      <trkpt lat="45.20961" lon="6.40418">
        <ele>2079</ele>
        <time>2014-07-23T11:14:54Z</time>
      </trkpt>
      <trkpt lat="45.20978" lon="6.40407">
        <ele>2092</ele>
        <time>2014-07-23T11:15:08Z</time>
      </trkpt>
      <trkpt lat="45.20992" lon="6.40388">
        <ele>2094</ele>
        <time>2014-07-23T11:15:20Z</time>
      </trkpt>
      <trkpt lat="45.21005" lon="6.4037">
        <ele>2095</ele>
        <time>2014-07-23T11:15:32Z</time>
      </trkpt>
      <trkpt lat="45.21022" lon="6.40358">
        <ele>2097</ele>
        <time>2014-07-23T11:15:42Z</time>
      </trkpt>
      <trkpt lat="45.21039" lon="6.40349">
        <ele>2097</ele>
        <time>2014-07-23T11:15:53Z</time>
      </trkpt>
      <trkpt lat="45.21057" lon="6.4034">
        <ele>2098</ele>
        <time>2014-07-23T11:16:06Z</time>
      </trkpt>
      <trkpt lat="45.21076" lon="6.40337">
        <ele>2101</ele>
        <time>2014-07-23T11:16:18Z</time>
      </trkpt>
      <trkpt lat="45.21094" lon="6.40327">
        <ele>2108</ele>
        <time>2014-07-23T11:16:33Z</time>
      </trkpt>
      <trkpt lat="45.21109" lon="6.40314">
        <ele>2111</ele>
        <time>2014-07-23T11:16:48Z</time>
      </trkpt>
      <trkpt lat="45.21124" lon="6.40297">
        <ele>2114</ele>
        <time>2014-07-23T11:17:33Z</time>
      </trkpt>
      <trkpt lat="45.21142" lon="6.40287">
        <ele>2115</ele>
        <time>2014-07-23T11:17:48Z</time>
      </trkpt>
      <trkpt lat="45.21157" lon="6.40272">
        <ele>2118</ele>
        <time>2014-07-23T11:18:02Z</time>
      </trkpt>
      <trkpt lat="45.21174" lon="6.40257">
        <ele>2119</ele>
        <time>2014-07-23T11:18:17Z</time>
      </trkpt>
      <trkpt lat="45.21191" lon="6.40248">
        <ele>2129</ele>
        <time>2014-07-23T11:18:27Z</time>
      </trkpt>
      <trkpt lat="45.21207" lon="6.40236">
        <ele>2130</ele>
        <time>2014-07-23T11:18:43Z</time>
      </trkpt>
      <trkpt lat="45.21223" lon="6.40222">
        <ele>2131</ele>
        <time>2014-07-23T11:19:02Z</time>
      </trkpt>
      <trkpt lat="45.2124" lon="6.40209">
        <ele>2132</ele>
        <time>2014-07-23T11:19:19Z</time>
      </trkpt>
      <trkpt lat="45.21254" lon="6.40191">
        <ele>2130</ele>
        <time>2014-07-23T11:19:33Z</time>
      </trkpt>
      <trkpt lat="45.2127" lon="6.40177">
        <ele>2131</ele>
        <time>2014-07-23T11:19:42Z</time>
      </trkpt>
      <trkpt lat="45.21286" lon="6.40163">
        <ele>2138</ele>
        <time>2014-07-23T11:19:55Z</time>
      </trkpt>
      <trkpt lat="45.21271" lon="6.40147">
        <ele>2139</ele>
        <time>2014-07-23T11:20:31Z</time>
      </trkpt>
      <trkpt lat="45.21253" lon="6.40155">
        <ele>2139</ele>
        <time>2014-07-23T11:20:44Z</time>
      </trkpt>
      <trkpt lat="45.21235" lon="6.40158">
        <ele>2146</ele>
        <time>2014-07-23T11:20:56Z</time>
      </trkpt>
      <trkpt lat="45.21217" lon="6.40158">
        <ele>2149</ele>
        <time>2014-07-23T11:21:10Z</time>
      </trkpt>
      <trkpt lat="45.21198" lon="6.40158">
        <ele>2151</ele>
        <time>2014-07-23T11:21:24Z</time>
      </trkpt>
      <trkpt lat="45.21181" lon="6.4017">
        <ele>2143</ele>
        <time>2014-07-23T11:21:39Z</time>
      </trkpt>
      <trkpt lat="45.21164" lon="6.40181">
        <ele>2147</ele>
        <time>2014-07-23T11:21:53Z</time>
      </trkpt>
      <trkpt lat="45.21147" lon="6.40192">
        <ele>2145</ele>
        <time>2014-07-23T11:22:07Z</time>
      </trkpt>
      <trkpt lat="45.21128" lon="6.40195">
        <ele>2145</ele>
        <time>2014-07-23T11:22:22Z</time>
      </trkpt>
      <trkpt lat="45.21109" lon="6.40197">
        <ele>2146</ele>
        <time>2014-07-23T11:22:37Z</time>
      </trkpt>
      <trkpt lat="45.21091" lon="6.4019">
        <ele>2150</ele>
        <time>2014-07-23T11:22:54Z</time>
      </trkpt>
      <trkpt lat="45.21074" lon="6.40181">
        <ele>2156</ele>
        <time>2014-07-23T11:23:07Z</time>
      </trkpt>
      <trkpt lat="45.21059" lon="6.40166">
        <ele>2167</ele>
        <time>2014-07-23T11:23:20Z</time>
      </trkpt>
      <trkpt lat="45.21045" lon="6.40147">
        <ele>2168</ele>
        <time>2014-07-23T11:23:33Z</time>
      </trkpt>
      <trkpt lat="45.2103" lon="6.40132">
        <ele>2170</ele>
        <time>2014-07-23T11:23:46Z</time>
      </trkpt>
      <trkpt lat="45.21013" lon="6.40121">
        <ele>2171</ele>
        <time>2014-07-23T11:23:58Z</time>
      </trkpt>
      <trkpt lat="45.20994" lon="6.40119">
        <ele>2173</ele>
        <time>2014-07-23T11:24:11Z</time>
      </trkpt>
      <trkpt lat="45.20975" lon="6.40121">
        <ele>2173</ele>
        <time>2014-07-23T11:24:24Z</time>
      </trkpt>
      <trkpt lat="45.20956" lon="6.40124">
        <ele>2173</ele>
        <time>2014-07-23T11:24:36Z</time>
      </trkpt>
      <trkpt lat="45.20938" lon="6.40133">
        <ele>2172</ele>
        <time>2014-07-23T11:24:52Z</time>
      </trkpt>
      <trkpt lat="45.20919" lon="6.40133">
        <ele>2172</ele>
        <time>2014-07-23T11:25:07Z</time>
      </trkpt>
      <trkpt lat="45.209" lon="6.40127">
        <ele>2174</ele>
        <time>2014-07-23T11:25:21Z</time>
      </trkpt>
      <trkpt lat="45.20882" lon="6.4012">
        <ele>2175</ele>
        <time>2014-07-23T11:25:34Z</time>
      </trkpt>
      <trkpt lat="45.20864" lon="6.40117">
        <ele>2176</ele>
        <time>2014-07-23T11:25:49Z</time>
      </trkpt>
      <trkpt lat="45.20848" lon="6.40103">
        <ele>2178</ele>
        <time>2014-07-23T11:26:05Z</time>
      </trkpt>
      <trkpt lat="45.20841" lon="6.40078">
        <ele>2188</ele>
        <time>2014-07-23T11:31:01Z</time>
      </trkpt>
      <trkpt lat="45.20832" lon="6.40056">
        <ele>2187</ele>
        <time>2014-07-23T11:31:09Z</time>
      </trkpt>
      <trkpt lat="45.20821" lon="6.40034">
        <ele>2190</ele>
        <time>2014-07-23T11:31:19Z</time>
      </trkpt>
      <trkpt lat="45.20806" lon="6.40017">
        <ele>2191</ele>
        <time>2014-07-23T11:31:34Z</time>
      </trkpt>
      <trkpt lat="45.20797" lon="6.39995">
        <ele>2203</ele>
        <time>2014-07-23T11:31:49Z</time>
      </trkpt>
      <trkpt lat="45.20785" lon="6.39975">
        <ele>2203</ele>
        <time>2014-07-23T11:32:05Z</time>
      </trkpt>
      <trkpt lat="45.20776" lon="6.39953">
        <ele>2205</ele>
        <time>2014-07-23T11:32:17Z</time>
      </trkpt>
      <trkpt lat="45.20761" lon="6.39937">
        <ele>2206</ele>
        <time>2014-07-23T11:32:28Z</time>
      </trkpt>
      <trkpt lat="45.20746" lon="6.39921">
        <ele>2205</ele>
        <time>2014-07-23T11:32:42Z</time>
      </trkpt>
      <trkpt lat="45.2073" lon="6.39909">
        <ele>2213</ele>
        <time>2014-07-23T11:32:53Z</time>
      </trkpt>
      <trkpt lat="45.20712" lon="6.39896">
        <ele>2216</ele>
        <time>2014-07-23T11:33:04Z</time>
      </trkpt>
      <trkpt lat="45.20697" lon="6.39882">
        <ele>2217</ele>
        <time>2014-07-23T11:33:18Z</time>
      </trkpt>
      <trkpt lat="45.20679" lon="6.39875">
        <ele>2218</ele>
        <time>2014-07-23T11:33:35Z</time>
      </trkpt>
      <trkpt lat="45.20661" lon="6.39874">
        <ele>2218</ele>
        <time>2014-07-23T11:33:55Z</time>
      </trkpt>
      <trkpt lat="45.20644" lon="6.39863">
        <ele>2220</ele>
        <time>2014-07-23T11:34:13Z</time>
      </trkpt>
      <trkpt lat="45.20628" lon="6.3985">
        <ele>2221</ele>
        <time>2014-07-23T11:34:27Z</time>
      </trkpt>
      <trkpt lat="45.20614" lon="6.39833">
        <ele>2235</ele>
        <time>2014-07-23T11:34:53Z</time>
      </trkpt>
      <trkpt lat="45.20596" lon="6.39828">
        <ele>2233</ele>
        <time>2014-07-23T11:35:16Z</time>
      </trkpt>
      <trkpt lat="45.20577" lon="6.3982">
        <ele>2229</ele>
        <time>2014-07-23T11:35:33Z</time>
      </trkpt>
      <trkpt lat="45.20559" lon="6.39813">
        <ele>2229</ele>
        <time>2014-07-23T11:35:41Z</time>
      </trkpt>
      <trkpt lat="45.20547" lon="6.3979">
        <ele>2230</ele>
        <time>2014-07-23T11:35:51Z</time>
      </trkpt>
      <trkpt lat="45.20546" lon="6.39764">
        <ele>2233</ele>
        <time>2014-07-23T11:36:04Z</time>
      </trkpt>
      <trkpt lat="45.20537" lon="6.3974">
        <ele>2246</ele>
        <time>2014-07-23T11:36:17Z</time>
      </trkpt>
      <trkpt lat="45.20526" lon="6.39718">
        <ele>2248</ele>
        <time>2014-07-23T11:36:31Z</time>
      </trkpt>
      <trkpt lat="45.20511" lon="6.39703">
        <ele>2249</ele>
        <time>2014-07-23T11:36:42Z</time>
      </trkpt>
      <trkpt lat="45.20496" lon="6.39691">
        <ele>2236</ele>
        <time>2014-07-23T11:36:54Z</time>
      </trkpt>
      <trkpt lat="45.20482" lon="6.39673">
        <ele>2239</ele>
        <time>2014-07-23T11:37:06Z</time>
      </trkpt>
      <trkpt lat="45.20471" lon="6.39652">
        <ele>2248</ele>
        <time>2014-07-23T11:37:18Z</time>
      </trkpt>
      <trkpt lat="45.20461" lon="6.39629">
        <ele>2248</ele>
        <time>2014-07-23T11:37:28Z</time>
      </trkpt>
      <trkpt lat="45.20454" lon="6.39606">
        <ele>2250</ele>
        <time>2014-07-23T11:37:40Z</time>
      </trkpt>
      <trkpt lat="45.20445" lon="6.39583">
        <ele>2261</ele>
        <time>2014-07-23T11:37:53Z</time>
      </trkpt>
      <trkpt lat="45.20435" lon="6.39562">
        <ele>2261</ele>
        <time>2014-07-23T11:38:07Z</time>
      </trkpt>
      <trkpt lat="45.20425" lon="6.3954">
        <ele>2264</ele>
        <time>2014-07-23T11:38:21Z</time>
      </trkpt>
      <trkpt lat="45.20417" lon="6.39517">
        <ele>2264</ele>
        <time>2014-07-23T11:38:32Z</time>
      </trkpt>
      <trkpt lat="45.20409" lon="6.39494">
        <ele>2258</ele>
        <time>2014-07-23T11:38:43Z</time>
      </trkpt>
      <trkpt lat="45.20401" lon="6.3947">
        <ele>2257</ele>
        <time>2014-07-23T11:38:53Z</time>
      </trkpt>
      <trkpt lat="45.20395" lon="6.39444">
        <ele>2260</ele>
        <time>2014-07-23T11:39:09Z</time>
      </trkpt>
      <trkpt lat="45.20388" lon="6.3942">
        <ele>2262</ele>
        <time>2014-07-23T11:39:22Z</time>
      </trkpt>
      <trkpt lat="45.20377" lon="6.39396">
        <ele>2268</ele>
        <time>2014-07-23T11:39:32Z</time>
      </trkpt>
      <trkpt lat="45.20373" lon="6.39371">
        <ele>2270</ele>
        <time>2014-07-23T11:39:45Z</time>
      </trkpt>
      <trkpt lat="45.2037" lon="6.39344">
        <ele>2270</ele>
        <time>2014-07-23T11:39:59Z</time>
      </trkpt>
      <trkpt lat="45.20363" lon="6.39318">
        <ele>2278</ele>
        <time>2014-07-23T11:40:16Z</time>
      </trkpt>
      <trkpt lat="45.20381" lon="6.39309">
        <ele>2283</ele>
        <time>2014-07-23T11:41:00Z</time>
      </trkpt>
      <trkpt lat="45.20396" lon="6.39324">
        <ele>2286</ele>
        <time>2014-07-23T11:41:23Z</time>
      </trkpt>
      <trkpt lat="45.20405" lon="6.39346">
        <ele>2280</ele>
        <time>2014-07-23T11:42:13Z</time>
      </trkpt>
      <trkpt lat="45.2042" lon="6.39362">
        <ele>2302</ele>
        <time>2014-07-23T11:42:38Z</time>
      </trkpt>
      <trkpt lat="45.20427" lon="6.39338">
        <ele>2299</ele>
        <time>2014-07-23T11:43:37Z</time>
      </trkpt>
      <trkpt lat="45.20424" lon="6.39312">
        <ele>2311</ele>
        <time>2014-07-23T11:44:05Z</time>
      </trkpt>
      <trkpt lat="45.20424" lon="6.39287">
        <ele>2317</ele>
        <time>2014-07-23T11:44:19Z</time>
      </trkpt>
      <trkpt lat="45.20422" lon="6.39261">
        <ele>2312</ele>
        <time>2014-07-23T11:44:35Z</time>
      </trkpt>
      <trkpt lat="45.20416" lon="6.39236">
        <ele>2304</ele>
        <time>2014-07-23T11:44:54Z</time>
      </trkpt>
      <trkpt lat="45.20407" lon="6.39212">
        <ele>2305</ele>
        <time>2014-07-23T11:45:09Z</time>
      </trkpt>
      <trkpt lat="45.20395" lon="6.3919">
        <ele>2307</ele>
        <time>2014-07-23T11:45:24Z</time>
      </trkpt>
      <trkpt lat="45.20385" lon="6.39168">
        <ele>2307</ele>
        <time>2014-07-23T11:45:39Z</time>
      </trkpt>
      <trkpt lat="45.20374" lon="6.39146">
        <ele>2319</ele>
        <time>2014-07-23T11:45:56Z</time>
      </trkpt>
      <trkpt lat="45.20368" lon="6.3912">
        <ele>2321</ele>
        <time>2014-07-23T11:46:12Z</time>
      </trkpt>
      <trkpt lat="45.20363" lon="6.39095">
        <ele>2323</ele>
        <time>2014-07-23T11:46:27Z</time>
      </trkpt>
      <trkpt lat="45.20356" lon="6.39072">
        <ele>2333</ele>
        <time>2014-07-23T11:46:41Z</time>
      </trkpt>
      <trkpt lat="45.20347" lon="6.39049">
        <ele>2336</ele>
        <time>2014-07-23T11:46:54Z</time>
      </trkpt>
      <trkpt lat="45.20337" lon="6.39026">
        <ele>2338</ele>
        <time>2014-07-23T11:47:15Z</time>
      </trkpt>
      <trkpt lat="45.20342" lon="6.39002">
        <ele>2337</ele>
        <time>2014-07-23T11:47:52Z</time>
      </trkpt>
      <trkpt lat="45.20355" lon="6.38983">
        <ele>2349</ele>
        <time>2014-07-23T11:48:23Z</time>
      </trkpt>
      <trkpt lat="45.20356" lon="6.38958">
        <ele>2352</ele>
        <time>2014-07-23T11:49:07Z</time>
      </trkpt>
      <trkpt lat="45.20352" lon="6.38933">
        <ele>2352</ele>
        <time>2014-07-23T11:49:35Z</time>
      </trkpt>
      <trkpt lat="45.20368" lon="6.38948">
        <ele>2355</ele>
        <time>2014-07-23T11:50:15Z</time>
      </trkpt>
      <trkpt lat="45.20375" lon="6.38972">
        <ele>2355</ele>
        <time>2014-07-23T11:50:28Z</time>
      </trkpt>
      <trkpt lat="45.20382" lon="6.38997">
        <ele>2356</ele>
        <time>2014-07-23T11:50:39Z</time>
      </trkpt>
      <trkpt lat="45.20389" lon="6.39023">
        <ele>2348</ele>
        <time>2014-07-23T11:50:51Z</time>
      </trkpt>
      <trkpt lat="45.20398" lon="6.39045">
        <ele>2346</ele>
        <time>2014-07-23T11:51:02Z</time>
      </trkpt>
      <trkpt lat="45.20408" lon="6.39068">
        <ele>2347</ele>
        <time>2014-07-23T11:51:15Z</time>
      </trkpt>
      <trkpt lat="45.2042" lon="6.39094">
        <ele>2356</ele>
        <time>2014-07-23T11:51:27Z</time>
      </trkpt>
      <trkpt lat="45.2043" lon="6.39115">
        <ele>2360</ele>
        <time>2014-07-23T11:51:36Z</time>
      </trkpt>
      <trkpt lat="45.20442" lon="6.39136">
        <ele>2359</ele>
        <time>2014-07-23T11:51:47Z</time>
      </trkpt>
      <trkpt lat="45.20455" lon="6.39155">
        <ele>2361</ele>
        <time>2014-07-23T11:51:58Z</time>
      </trkpt>
      <trkpt lat="45.20466" lon="6.39177">
        <ele>2352</ele>
        <time>2014-07-23T11:52:08Z</time>
      </trkpt>
      <trkpt lat="45.20478" lon="6.39199">
        <ele>2353</ele>
        <time>2014-07-23T11:52:21Z</time>
      </trkpt>
      <trkpt lat="45.2049" lon="6.39219">
        <ele>2352</ele>
        <time>2014-07-23T11:52:35Z</time>
      </trkpt>
      <trkpt lat="45.205" lon="6.39241">
        <ele>2356</ele>
        <time>2014-07-23T11:52:48Z</time>
      </trkpt>
      <trkpt lat="45.20508" lon="6.39264">
        <ele>2368</ele>
        <time>2014-07-23T11:53:04Z</time>
      </trkpt>
      <trkpt lat="45.20516" lon="6.39287">
        <ele>2370</ele>
        <time>2014-07-23T11:53:19Z</time>
      </trkpt>
      <trkpt lat="45.20524" lon="6.39311">
        <ele>2368</ele>
        <time>2014-07-23T11:53:44Z</time>
      </trkpt>
      <trkpt lat="45.20532" lon="6.39335">
        <ele>2357</ele>
        <time>2014-07-23T11:54:11Z</time>
      </trkpt>
      <trkpt lat="45.20544" lon="6.39354">
        <ele>2361</ele>
        <time>2014-07-23T11:54:36Z</time>
      </trkpt>
      <trkpt lat="45.20561" lon="6.39364">
        <ele>2364</ele>
        <time>2014-07-23T11:55:06Z</time>
      </trkpt>
      <trkpt lat="45.20579" lon="6.39367">
        <ele>2367</ele>
        <time>2014-07-23T11:55:51Z</time>
      </trkpt>
      <trkpt lat="45.20596" lon="6.39377">
        <ele>2386</ele>
        <time>2014-07-23T11:56:20Z</time>
      </trkpt>
      <trkpt lat="45.20614" lon="6.39379">
        <ele>2387</ele>
        <time>2014-07-23T11:56:48Z</time>
      </trkpt>
      <trkpt lat="45.20632" lon="6.39384">
        <ele>2389</ele>
        <time>2014-07-23T11:57:12Z</time>
      </trkpt>
      <trkpt lat="45.2065" lon="6.39381">
        <ele>2391</ele>
        <time>2014-07-23T11:57:38Z</time>
      </trkpt>
      <trkpt lat="45.20666" lon="6.39369">
        <ele>2395</ele>
        <time>2014-07-23T11:58:07Z</time>
      </trkpt>
      <trkpt lat="45.20679" lon="6.39351">
        <ele>2407</ele>
        <time>2014-07-23T11:58:37Z</time>
      </trkpt>
      <trkpt lat="45.20684" lon="6.39326">
        <ele>2416</ele>
        <time>2014-07-23T11:59:09Z</time>
      </trkpt>
      <trkpt lat="45.20686" lon="6.393">
        <ele>2418</ele>
        <time>2014-07-23T11:59:41Z</time>
      </trkpt>
      <trkpt lat="45.207" lon="6.39283">
        <ele>2418</ele>
        <time>2014-07-23T12:00:08Z</time>
      </trkpt>
      <trkpt lat="45.20691" lon="6.39261">
        <ele>2421</ele>
        <time>2014-07-23T12:00:36Z</time>
      </trkpt>
      <trkpt lat="45.20686" lon="6.39235">
        <ele>2424</ele>
        <time>2014-07-23T12:01:05Z</time>
      </trkpt>
      <trkpt lat="45.2068" lon="6.39211">
        <ele>2423</ele>
        <time>2014-07-23T12:01:30Z</time>
      </trkpt>
      <trkpt lat="45.20672" lon="6.39188">
        <ele>2425</ele>
        <time>2014-07-23T12:02:11Z</time>
      </trkpt>
      <trkpt lat="45.2066" lon="6.39168">
        <ele>2429</ele>
        <time>2014-07-23T12:02:41Z</time>
      </trkpt>
      <trkpt lat="45.20644" lon="6.39155">
        <ele>2429</ele>
        <time>2014-07-23T12:03:16Z</time>
      </trkpt>
      <trkpt lat="45.20634" lon="6.39134">
        <ele>2428</ele>
        <time>2014-07-23T12:03:46Z</time>
      </trkpt>
      <trkpt lat="45.20621" lon="6.39114">
        <ele>2429</ele>
        <time>2014-07-23T12:04:13Z</time>
      </trkpt>
      <trkpt lat="45.20611" lon="6.39093">
        <ele>2431</ele>
        <time>2014-07-23T12:04:38Z</time>
      </trkpt>
      <trkpt lat="45.20603" lon="6.39069">
        <ele>2433</ele>
        <time>2014-07-23T12:05:04Z</time>
      </trkpt>
      <trkpt lat="45.20594" lon="6.39046">
        <ele>2434</ele>
        <time>2014-07-23T12:05:27Z</time>
      </trkpt>
      <trkpt lat="45.2059" lon="6.39021">
        <ele>2438</ele>
        <time>2014-07-23T12:05:50Z</time>
      </trkpt>
      <trkpt lat="45.20585" lon="6.38995">
        <ele>2448</ele>
        <time>2014-07-23T12:06:16Z</time>
      </trkpt>
      <trkpt lat="45.20582" lon="6.38969">
        <ele>2446</ele>
        <time>2014-07-23T12:06:28Z</time>
      </trkpt>
      <trkpt lat="45.2058" lon="6.38942">
        <ele>2448</ele>
        <time>2014-07-23T12:06:39Z</time>
      </trkpt>
      <trkpt lat="45.20572" lon="6.38917">
        <ele>2452</ele>
        <time>2014-07-23T12:06:47Z</time>
      </trkpt>
      <trkpt lat="45.20567" lon="6.38891">
        <ele>2449</ele>
        <time>2014-07-23T12:06:55Z</time>
      </trkpt>
      <trkpt lat="45.20566" lon="6.38864">
        <ele>2447</ele>
        <time>2014-07-23T12:07:04Z</time>
      </trkpt>
      <trkpt lat="45.20564" lon="6.38837">
        <ele>2448</ele>
        <time>2014-07-23T12:07:16Z</time>
      </trkpt>
      <trkpt lat="45.20562" lon="6.3881">
        <ele>2449</ele>
        <time>2014-07-23T12:07:24Z</time>
      </trkpt>
      <trkpt lat="45.2056" lon="6.38784">
        <ele>2450</ele>
        <time>2014-07-23T12:07:31Z</time>
      </trkpt>
      <trkpt lat="45.20563" lon="6.38758">
        <ele>2453</ele>
        <time>2014-07-23T12:07:47Z</time>
      </trkpt>
      <trkpt lat="45.20562" lon="6.38732">
        <ele>2458</ele>
        <time>2014-07-23T12:08:04Z</time>
      </trkpt>
      <trkpt lat="45.20559" lon="6.38707">
        <ele>2460</ele>
        <time>2014-07-23T12:08:30Z</time>
      </trkpt>
      <trkpt lat="45.20559" lon="6.38681">
        <ele>2464</ele>
        <time>2014-07-23T12:08:56Z</time>
      </trkpt>
      <trkpt lat="45.2057" lon="6.3866">
        <ele>2476</ele>
        <time>2014-07-23T12:09:13Z</time>
      </trkpt>
      <trkpt lat="45.2059" lon="6.38659">
        <ele>2481</ele>
        <time>2014-07-23T12:10:29Z</time>
      </trkpt>
      <trkpt lat="45.20608" lon="6.38651">
        <ele>2481</ele>
        <time>2014-07-23T12:10:33Z</time>
      </trkpt>
      <trkpt lat="45.20628" lon="6.38642">
        <ele>2481</ele>
        <time>2014-07-23T12:10:36Z</time>
      </trkpt>
      <trkpt lat="45.2065" lon="6.38637">
        <ele>2479</ele>
        <time>2014-07-23T12:10:39Z</time>
      </trkpt>
      <trkpt lat="45.20673" lon="6.38635">
        <ele>2476</ele>
        <time>2014-07-23T12:10:42Z</time>
      </trkpt>
      <trkpt lat="45.20692" lon="6.3864">
        <ele>2475</ele>
        <time>2014-07-23T12:10:48Z</time>
      </trkpt>
      <trkpt lat="45.20711" lon="6.38639">
        <ele>2475</ele>
        <time>2014-07-23T12:11:03Z</time>
      </trkpt>
      <trkpt lat="45.20729" lon="6.38648">
        <ele>2472</ele>
        <time>2014-07-23T12:11:10Z</time>
      </trkpt>
      <trkpt lat="45.20748" lon="6.38654">
        <ele>2468</ele>
        <time>2014-07-23T12:11:16Z</time>
      </trkpt>
      <trkpt lat="45.20768" lon="6.38658">
        <ele>2461</ele>
        <time>2014-07-23T12:11:22Z</time>
      </trkpt>
      <trkpt lat="45.20787" lon="6.3865">
        <ele>2458</ele>
        <time>2014-07-23T12:11:27Z</time>
      </trkpt>
      <trkpt lat="45.20805" lon="6.38635">
        <ele>2457</ele>
        <time>2014-07-23T12:11:31Z</time>
      </trkpt>
      <trkpt lat="45.20819" lon="6.3861">
        <ele>2460</ele>
        <time>2014-07-23T12:11:40Z</time>
      </trkpt>
      <trkpt lat="45.20832" lon="6.38583">
        <ele>2463</ele>
        <time>2014-07-23T12:11:44Z</time>
      </trkpt>
      <trkpt lat="45.20844" lon="6.38554">
        <ele>2451</ele>
        <time>2014-07-23T12:11:48Z</time>
      </trkpt>
      <trkpt lat="45.20856" lon="6.38526">
        <ele>2451</ele>
        <time>2014-07-23T12:11:52Z</time>
      </trkpt>
      <trkpt lat="45.20869" lon="6.38502">
        <ele>2450</ele>
        <time>2014-07-23T12:11:55Z</time>
      </trkpt>
      <trkpt lat="45.20883" lon="6.38473">
        <ele>2447</ele>
        <time>2014-07-23T12:11:58Z</time>
      </trkpt>
      <trkpt lat="45.20892" lon="6.38451">
        <ele>2445</ele>
        <time>2014-07-23T12:12:00Z</time>
      </trkpt>
      <trkpt lat="45.20902" lon="6.38418">
        <ele>2441</ele>
        <time>2014-07-23T12:12:03Z</time>
      </trkpt>
      <trkpt lat="45.20919" lon="6.38392">
        <ele>2427</ele>
        <time>2014-07-23T12:12:06Z</time>
      </trkpt>
      <trkpt lat="45.20939" lon="6.38388">
        <ele>2425</ele>
        <time>2014-07-23T12:12:08Z</time>
      </trkpt>
      <trkpt lat="45.20957" lon="6.38396">
        <ele>2425</ele>
        <time>2014-07-23T12:12:10Z</time>
      </trkpt>
      <trkpt lat="45.20975" lon="6.38407">
        <ele>2426</ele>
        <time>2014-07-23T12:12:12Z</time>
      </trkpt>
      <trkpt lat="45.21" lon="6.38413">
        <ele>2427</ele>
        <time>2014-07-23T12:12:15Z</time>
      </trkpt>
      <trkpt lat="45.21019" lon="6.38409">
        <ele>2425</ele>
        <time>2014-07-23T12:12:18Z</time>
      </trkpt>
      <trkpt lat="45.21036" lon="6.38397">
        <ele>2424</ele>
        <time>2014-07-23T12:12:24Z</time>
      </trkpt>
      <trkpt lat="45.21053" lon="6.38385">
        <ele>2424</ele>
        <time>2014-07-23T12:12:37Z</time>
      </trkpt>
      <trkpt lat="45.21068" lon="6.38369">
        <ele>2424</ele>
        <time>2014-07-23T12:12:44Z</time>
      </trkpt>
      <trkpt lat="45.21084" lon="6.38357">
        <ele>2424</ele>
        <time>2014-07-23T12:12:53Z</time>
      </trkpt>
      <trkpt lat="45.21104" lon="6.38356">
        <ele>2423</ele>
        <time>2014-07-23T12:13:03Z</time>
      </trkpt>
      <trkpt lat="45.21121" lon="6.3836">
        <ele>2422</ele>
        <time>2014-07-23T12:13:13Z</time>
      </trkpt>
      <trkpt lat="45.2114" lon="6.38362">
        <ele>2422</ele>
        <time>2014-07-23T12:13:24Z</time>
      </trkpt>
      <trkpt lat="45.21158" lon="6.38363">
        <ele>2422</ele>
        <time>2014-07-23T12:14:02Z</time>
      </trkpt>
      <trkpt lat="45.21176" lon="6.38355">
        <ele>2425</ele>
        <time>2014-07-23T12:16:11Z</time>
      </trkpt>
      <trkpt lat="45.21195" lon="6.38354">
        <ele>2427</ele>
        <time>2014-07-23T12:16:27Z</time>
      </trkpt>
      <trkpt lat="45.21214" lon="6.38355">
        <ele>2428</ele>
        <time>2014-07-23T12:16:43Z</time>
      </trkpt>
      <trkpt lat="45.21233" lon="6.38363">
        <ele>2430</ele>
        <time>2014-07-23T12:20:15Z</time>
      </trkpt>
      <trkpt lat="45.21249" lon="6.38376">
        <ele>2430</ele>
        <time>2014-07-23T12:20:26Z</time>
      </trkpt>
      <trkpt lat="45.21267" lon="6.38371">
        <ele>2435</ele>
        <time>2014-07-23T12:20:47Z</time>
      </trkpt>
      <trkpt lat="45.21283" lon="6.38355">
        <ele>2436</ele>
        <time>2014-07-23T12:20:55Z</time>
      </trkpt>
      <trkpt lat="45.21299" lon="6.38342">
        <ele>2436</ele>
        <time>2014-07-23T12:21:01Z</time>
      </trkpt>
      <trkpt lat="45.21316" lon="6.38329">
        <ele>2429</ele>
        <time>2014-07-23T12:21:09Z</time>
      </trkpt>
      <trkpt lat="45.21334" lon="6.38326">
        <ele>2434</ele>
        <time>2014-07-23T12:21:13Z</time>
      </trkpt>
      <trkpt lat="45.21352" lon="6.38323">
        <ele>2426</ele>
        <time>2014-07-23T12:21:17Z</time>
      </trkpt>
      <trkpt lat="45.21369" lon="6.38304">
        <ele>2418</ele>
        <time>2014-07-23T12:21:53Z</time>
      </trkpt>
      <trkpt lat="45.21386" lon="6.38288">
        <ele>2415</ele>
        <time>2014-07-23T12:21:57Z</time>
      </trkpt>
      <trkpt lat="45.21404" lon="6.3828">
        <ele>2414</ele>
        <time>2014-07-23T12:22:16Z</time>
      </trkpt>
      <trkpt lat="45.21419" lon="6.38262">
        <ele>2403</ele>
        <time>2014-07-23T12:22:22Z</time>
      </trkpt>
      <trkpt lat="45.21435" lon="6.38244">
        <ele>2396</ele>
        <time>2014-07-23T12:22:50Z</time>
      </trkpt>
      <trkpt lat="45.2145" lon="6.38227">
        <ele>2389</ele>
        <time>2014-07-23T12:22:57Z</time>
      </trkpt>
      <trkpt lat="45.21464" lon="6.38208">
        <ele>2385</ele>
        <time>2014-07-23T12:24:15Z</time>
      </trkpt>
      <trkpt lat="45.21467" lon="6.38182">
        <ele>2383</ele>
        <time>2014-07-23T12:25:16Z</time>
      </trkpt>
      <trkpt lat="45.21556" lon="6.3827">
        <ele>2354</ele>
        <time>2014-07-23T12:30:23Z</time>
      </trkpt>
      <trkpt lat="45.21568" lon="6.3825">
        <ele>2353</ele>
        <time>2014-07-23T12:30:30Z</time>
      </trkpt>
      <trkpt lat="45.21587" lon="6.38241">
        <ele>2351</ele>
        <time>2014-07-23T12:30:33Z</time>
      </trkpt>
      <trkpt lat="45.21608" lon="6.3824">
        <ele>2350</ele>
        <time>2014-07-23T12:30:38Z</time>
      </trkpt>
      <trkpt lat="45.21629" lon="6.38237">
        <ele>2347</ele>
        <time>2014-07-23T12:30:43Z</time>
      </trkpt>
      <trkpt lat="45.21648" lon="6.3824">
        <ele>2340</ele>
        <time>2014-07-23T12:30:48Z</time>
      </trkpt>
      <trkpt lat="45.2167" lon="6.3824">
        <ele>2329</ele>
        <time>2014-07-23T12:30:52Z</time>
      </trkpt>
      <trkpt lat="45.21691" lon="6.38238">
        <ele>2332</ele>
        <time>2014-07-23T12:30:58Z</time>
      </trkpt>
      <trkpt lat="45.21711" lon="6.38244">
        <ele>2331</ele>
        <time>2014-07-23T12:31:01Z</time>
      </trkpt>
      <trkpt lat="45.21729" lon="6.38251">
        <ele>2311</ele>
        <time>2014-07-23T12:31:04Z</time>
      </trkpt>
      <trkpt lat="45.21749" lon="6.38261">
        <ele>2312</ele>
        <time>2014-07-23T12:31:07Z</time>
      </trkpt>
      <trkpt lat="45.21765" lon="6.38274">
        <ele>2302</ele>
        <time>2014-07-23T12:31:11Z</time>
      </trkpt>
      <trkpt lat="45.21783" lon="6.38279">
        <ele>2299</ele>
        <time>2014-07-23T12:31:16Z</time>
      </trkpt>
      <trkpt lat="45.21802" lon="6.38279">
        <ele>2298</ele>
        <time>2014-07-23T12:31:20Z</time>
      </trkpt>
      <trkpt lat="45.21819" lon="6.38284">
        <ele>2297</ele>
        <time>2014-07-23T12:31:30Z</time>
      </trkpt>
      <trkpt lat="45.21808" lon="6.38307">
        <ele>2291</ele>
        <time>2014-07-23T12:31:39Z</time>
      </trkpt>
      <trkpt lat="45.21804" lon="6.38333">
        <ele>2288</ele>
        <time>2014-07-23T12:31:43Z</time>
      </trkpt>
      <trkpt lat="45.21783" lon="6.38335">
        <ele>2272</ele>
        <time>2014-07-23T12:31:47Z</time>
      </trkpt>
      <trkpt lat="45.21794" lon="6.38356">
        <ele>2268</ele>
        <time>2014-07-23T12:31:54Z</time>
      </trkpt>
      <trkpt lat="45.21814" lon="6.3836">
        <ele>2268</ele>
        <time>2014-07-23T12:31:59Z</time>
      </trkpt>
      <trkpt lat="45.21835" lon="6.3835">
        <ele>2266</ele>
        <time>2014-07-23T12:32:04Z</time>
      </trkpt>
      <trkpt lat="45.21854" lon="6.38351">
        <ele>2264</ele>
        <time>2014-07-23T12:32:08Z</time>
      </trkpt>
      <trkpt lat="45.21874" lon="6.38351">
        <ele>2262</ele>
        <time>2014-07-23T12:33:02Z</time>
      </trkpt>
      <trkpt lat="45.21893" lon="6.38352">
        <ele>2262</ele>
        <time>2014-07-23T12:33:06Z</time>
      </trkpt>
      <trkpt lat="45.21915" lon="6.38353">
        <ele>2263</ele>
        <time>2014-07-23T12:33:10Z</time>
      </trkpt>
      <trkpt lat="45.21933" lon="6.38352">
        <ele>2262</ele>
        <time>2014-07-23T12:33:13Z</time>
      </trkpt>
      <trkpt lat="45.21953" lon="6.38353">
        <ele>2261</ele>
        <time>2014-07-23T12:33:16Z</time>
      </trkpt>
      <trkpt lat="45.21973" lon="6.38366">
        <ele>2260</ele>
        <time>2014-07-23T12:33:19Z</time>
      </trkpt>
      <trkpt lat="45.21985" lon="6.38393">
        <ele>2255</ele>
        <time>2014-07-23T12:33:22Z</time>
      </trkpt>
      <trkpt lat="45.21997" lon="6.38419">
        <ele>2245</ele>
        <time>2014-07-23T12:33:25Z</time>
      </trkpt>
      <trkpt lat="45.22014" lon="6.38443">
        <ele>2242</ele>
        <time>2014-07-23T12:33:28Z</time>
      </trkpt>
      <trkpt lat="45.22037" lon="6.38457">
        <ele>2240</ele>
        <time>2014-07-23T12:33:31Z</time>
      </trkpt>
      <trkpt lat="45.22059" lon="6.38464">
        <ele>2240</ele>
        <time>2014-07-23T12:33:34Z</time>
      </trkpt>
      <trkpt lat="45.22081" lon="6.3847">
        <ele>2239</ele>
        <time>2014-07-23T12:33:37Z</time>
      </trkpt>
      <trkpt lat="45.22062" lon="6.38488">
        <ele>2236</ele>
        <time>2014-07-23T12:33:46Z</time>
      </trkpt>
      <trkpt lat="45.22036" lon="6.38492">
        <ele>2236</ele>
        <time>2014-07-23T12:33:49Z</time>
      </trkpt>
      <trkpt lat="45.22017" lon="6.38494">
        <ele>2233</ele>
        <time>2014-07-23T12:33:51Z</time>
      </trkpt>
      <trkpt lat="45.21992" lon="6.38483">
        <ele>2230</ele>
        <time>2014-07-23T12:33:54Z</time>
      </trkpt>
      <trkpt lat="45.21976" lon="6.38468">
        <ele>2232</ele>
        <time>2014-07-23T12:33:57Z</time>
      </trkpt>
      <trkpt lat="45.21961" lon="6.38451">
        <ele>2234</ele>
        <time>2014-07-23T12:34:03Z</time>
      </trkpt>
      <trkpt lat="45.21944" lon="6.38438">
        <ele>2235</ele>
        <time>2014-07-23T12:34:11Z</time>
      </trkpt>
      <trkpt lat="45.21927" lon="6.38456">
        <ele>2232</ele>
        <time>2014-07-23T12:34:18Z</time>
      </trkpt>
      <trkpt lat="45.21908" lon="6.38473">
        <ele>2230</ele>
        <time>2014-07-23T12:34:21Z</time>
      </trkpt>
      <trkpt lat="45.21894" lon="6.38494">
        <ele>2229</ele>
        <time>2014-07-23T12:34:24Z</time>
      </trkpt>
      <trkpt lat="45.21885" lon="6.38524">
        <ele>2215</ele>
        <time>2014-07-23T12:34:27Z</time>
      </trkpt>
      <trkpt lat="45.21885" lon="6.38551">
        <ele>2212</ele>
        <time>2014-07-23T12:34:29Z</time>
      </trkpt>
      <trkpt lat="45.21886" lon="6.38576">
        <ele>2209</ele>
        <time>2014-07-23T12:34:31Z</time>
      </trkpt>
      <trkpt lat="45.2188" lon="6.38603">
        <ele>2194</ele>
        <time>2014-07-23T12:34:34Z</time>
      </trkpt>
      <trkpt lat="45.2186" lon="6.38619">
        <ele>2194</ele>
        <time>2014-07-23T12:34:38Z</time>
      </trkpt>
      <trkpt lat="45.2184" lon="6.38625">
        <ele>2194</ele>
        <time>2014-07-23T12:34:40Z</time>
      </trkpt>
      <trkpt lat="45.21823" lon="6.38631">
        <ele>2197</ele>
        <time>2014-07-23T12:34:42Z</time>
      </trkpt>
      <trkpt lat="45.21797" lon="6.38641">
        <ele>2197</ele>
        <time>2014-07-23T12:34:45Z</time>
      </trkpt>
      <trkpt lat="45.21779" lon="6.38652">
        <ele>2196</ele>
        <time>2014-07-23T12:34:49Z</time>
      </trkpt>
      <trkpt lat="45.2176" lon="6.38663">
        <ele>2194</ele>
        <time>2014-07-23T12:34:57Z</time>
      </trkpt>
      <trkpt lat="45.21746" lon="6.38682">
        <ele>2194</ele>
        <time>2014-07-23T12:35:02Z</time>
      </trkpt>
      <trkpt lat="45.21731" lon="6.38706">
        <ele>2195</ele>
        <time>2014-07-23T12:35:06Z</time>
      </trkpt>
      <trkpt lat="45.2172" lon="6.38729">
        <ele>2194</ele>
        <time>2014-07-23T12:35:10Z</time>
      </trkpt>
      <trkpt lat="45.2172" lon="6.38754">
        <ele>2185</ele>
        <time>2014-07-23T12:35:14Z</time>
      </trkpt>
      <trkpt lat="45.21737" lon="6.38772">
        <ele>2182</ele>
        <time>2014-07-23T12:35:18Z</time>
      </trkpt>
      <trkpt lat="45.21756" lon="6.38778">
        <ele>2166</ele>
        <time>2014-07-23T12:35:21Z</time>
      </trkpt>
      <trkpt lat="45.21777" lon="6.38778">
        <ele>2164</ele>
        <time>2014-07-23T12:35:26Z</time>
      </trkpt>
      <trkpt lat="45.21797" lon="6.38772">
        <ele>2163</ele>
        <time>2014-07-23T12:35:31Z</time>
      </trkpt>
      <trkpt lat="45.21816" lon="6.38768">
        <ele>2162</ele>
        <time>2014-07-23T12:35:34Z</time>
      </trkpt>
      <trkpt lat="45.21842" lon="6.38761">
        <ele>2156</ele>
        <time>2014-07-23T12:35:37Z</time>
      </trkpt>
      <trkpt lat="45.21868" lon="6.38755">
        <ele>2151</ele>
        <time>2014-07-23T12:35:40Z</time>
      </trkpt>
      <trkpt lat="45.21888" lon="6.38755">
        <ele>2149</ele>
        <time>2014-07-23T12:35:43Z</time>
      </trkpt>
      <trkpt lat="45.21907" lon="6.38764">
        <ele>2148</ele>
        <time>2014-07-23T12:35:46Z</time>
      </trkpt>
      <trkpt lat="45.21926" lon="6.38776">
        <ele>2140</ele>
        <time>2014-07-23T12:35:50Z</time>
      </trkpt>
      <trkpt lat="45.21948" lon="6.38782">
        <ele>2137</ele>
        <time>2014-07-23T12:35:54Z</time>
      </trkpt>
      <trkpt lat="45.21965" lon="6.388">
        <ele>2134</ele>
        <time>2014-07-23T12:35:57Z</time>
      </trkpt>
      <trkpt lat="45.21982" lon="6.38821">
        <ele>2129</ele>
        <time>2014-07-23T12:36:00Z</time>
      </trkpt>
      <trkpt lat="45.21999" lon="6.38832">
        <ele>2121</ele>
        <time>2014-07-23T12:36:03Z</time>
      </trkpt>
      <trkpt lat="45.22015" lon="6.38845">
        <ele>2113</ele>
        <time>2014-07-23T12:36:07Z</time>
      </trkpt>
      <trkpt lat="45.22034" lon="6.38857">
        <ele>2109</ele>
        <time>2014-07-23T12:36:10Z</time>
      </trkpt>
      <trkpt lat="45.22054" lon="6.38863">
        <ele>2108</ele>
        <time>2014-07-23T12:36:12Z</time>
      </trkpt>
      <trkpt lat="45.22072" lon="6.38865">
        <ele>2108</ele>
        <time>2014-07-23T12:36:14Z</time>
      </trkpt>
      <trkpt lat="45.22095" lon="6.38871">
        <ele>2104</ele>
        <time>2014-07-23T12:36:17Z</time>
      </trkpt>
      <trkpt lat="45.22119" lon="6.38882">
        <ele>2102</ele>
        <time>2014-07-23T12:36:20Z</time>
      </trkpt>
      <trkpt lat="45.22139" lon="6.38896">
        <ele>2100</ele>
        <time>2014-07-23T12:36:23Z</time>
      </trkpt>
      <trkpt lat="45.22158" lon="6.3891">
        <ele>2094</ele>
        <time>2014-07-23T12:36:26Z</time>
      </trkpt>
      <trkpt lat="45.22175" lon="6.38925">
        <ele>2083</ele>
        <time>2014-07-23T12:36:29Z</time>
      </trkpt>
      <trkpt lat="45.22195" lon="6.38941">
        <ele>2075</ele>
        <time>2014-07-23T12:36:33Z</time>
      </trkpt>
      <trkpt lat="45.22219" lon="6.38952">
        <ele>2072</ele>
        <time>2014-07-23T12:36:36Z</time>
      </trkpt>
      <trkpt lat="45.22245" lon="6.38962">
        <ele>2069</ele>
        <time>2014-07-23T12:36:39Z</time>
      </trkpt>
      <trkpt lat="45.22265" lon="6.38967">
        <ele>2063</ele>
        <time>2014-07-23T12:36:42Z</time>
      </trkpt>
      <trkpt lat="45.22284" lon="6.38968">
        <ele>2063</ele>
        <time>2014-07-23T12:36:44Z</time>
      </trkpt>
      <trkpt lat="45.22308" lon="6.38975">
        <ele>2060</ele>
        <time>2014-07-23T12:36:47Z</time>
      </trkpt>
      <trkpt lat="45.22331" lon="6.38985">
        <ele>2054</ele>
        <time>2014-07-23T12:36:50Z</time>
      </trkpt>
      <trkpt lat="45.22352" lon="6.3899">
        <ele>2047</ele>
        <time>2014-07-23T12:36:53Z</time>
      </trkpt>
      <trkpt lat="45.22372" lon="6.38992">
        <ele>2046</ele>
        <time>2014-07-23T12:36:57Z</time>
      </trkpt>
      <trkpt lat="45.22392" lon="6.38993">
        <ele>2042</ele>
        <time>2014-07-23T12:37:00Z</time>
      </trkpt>
      <trkpt lat="45.22411" lon="6.38998">
        <ele>2036</ele>
        <time>2014-07-23T12:37:03Z</time>
      </trkpt>
      <trkpt lat="45.2243" lon="6.39003">
        <ele>2023</ele>
        <time>2014-07-23T12:37:06Z</time>
      </trkpt>
      <trkpt lat="45.22449" lon="6.39005">
        <ele>2016</ele>
        <time>2014-07-23T12:37:10Z</time>
      </trkpt>
      <trkpt lat="45.22461" lon="6.39025">
        <ele>2013</ele>
        <time>2014-07-23T12:38:24Z</time>
      </trkpt>
      <trkpt lat="45.2248" lon="6.39037">
        <ele>2010</ele>
        <time>2014-07-23T12:38:28Z</time>
      </trkpt>
      <trkpt lat="45.22496" lon="6.3906">
        <ele>2007</ele>
        <time>2014-07-23T12:38:34Z</time>
      </trkpt>
      <trkpt lat="45.225" lon="6.39087">
        <ele>1996</ele>
        <time>2014-07-23T12:38:49Z</time>
      </trkpt>
      <trkpt lat="45.22513" lon="6.39106">
        <ele>1981</ele>
        <time>2014-07-23T12:38:56Z</time>
      </trkpt>
      <trkpt lat="45.22531" lon="6.39119">
        <ele>1974</ele>
        <time>2014-07-23T12:39:02Z</time>
      </trkpt>
      <trkpt lat="45.22527" lon="6.39147">
        <ele>1973</ele>
        <time>2014-07-23T12:39:12Z</time>
      </trkpt>
      <trkpt lat="45.22515" lon="6.39176">
        <ele>1971</ele>
        <time>2014-07-23T12:39:16Z</time>
      </trkpt>
      <trkpt lat="45.22506" lon="6.39202">
        <ele>1966</ele>
        <time>2014-07-23T12:39:19Z</time>
      </trkpt>
      <trkpt lat="45.22498" lon="6.39225">
        <ele>1971</ele>
        <time>2014-07-23T12:39:23Z</time>
      </trkpt>
      <trkpt lat="45.22485" lon="6.39245">
        <ele>1969</ele>
        <time>2014-07-23T12:39:35Z</time>
      </trkpt>
      <trkpt lat="45.225" lon="6.39264">
        <ele>1954</ele>
        <time>2014-07-23T12:39:50Z</time>
      </trkpt>
      <trkpt lat="45.22521" lon="6.39265">
        <ele>1950</ele>
        <time>2014-07-23T12:39:56Z</time>
      </trkpt>
      <trkpt lat="45.22542" lon="6.39253">
        <ele>1946</ele>
        <time>2014-07-23T12:40:02Z</time>
      </trkpt>
      <trkpt lat="45.22561" lon="6.39251">
        <ele>1944</ele>
        <time>2014-07-23T12:40:07Z</time>
      </trkpt>
      <trkpt lat="45.22585" lon="6.39253">
        <ele>1940</ele>
        <time>2014-07-23T12:40:11Z</time>
      </trkpt>
      <trkpt lat="45.22603" lon="6.39256">
        <ele>1930</ele>
        <time>2014-07-23T12:40:14Z</time>
      </trkpt>
      <trkpt lat="45.22623" lon="6.39254">
        <ele>1923</ele>
        <time>2014-07-23T12:40:18Z</time>
      </trkpt>
      <trkpt lat="45.22642" lon="6.39251">
        <ele>1917</ele>
        <time>2014-07-23T12:40:23Z</time>
      </trkpt>
      <trkpt lat="45.22648" lon="6.3928">
        <ele>1918</ele>
        <time>2014-07-23T12:40:31Z</time>
      </trkpt>
      <trkpt lat="45.22641" lon="6.39312">
        <ele>1918</ele>
        <time>2014-07-23T12:40:36Z</time>
      </trkpt>
      <trkpt lat="45.22631" lon="6.39334">
        <ele>1912</ele>
        <time>2014-07-23T12:40:39Z</time>
      </trkpt>
      <trkpt lat="45.22624" lon="6.3936">
        <ele>1910</ele>
        <time>2014-07-23T12:40:43Z</time>
      </trkpt>
      <trkpt lat="45.22631" lon="6.39386">
        <ele>1908</ele>
        <time>2014-07-23T12:40:49Z</time>
      </trkpt>
      <trkpt lat="45.22651" lon="6.39393">
        <ele>1906</ele>
        <time>2014-07-23T12:40:53Z</time>
      </trkpt>
      <trkpt lat="45.22669" lon="6.39397">
        <ele>1890</ele>
        <time>2014-07-23T12:40:57Z</time>
      </trkpt>
      <trkpt lat="45.22687" lon="6.39406">
        <ele>1887</ele>
        <time>2014-07-23T12:41:01Z</time>
      </trkpt>
      <trkpt lat="45.22709" lon="6.39413">
        <ele>1879</ele>
        <time>2014-07-23T12:41:08Z</time>
      </trkpt>
      <trkpt lat="45.2273" lon="6.39421">
        <ele>1866</ele>
        <time>2014-07-23T12:41:16Z</time>
      </trkpt>
      <trkpt lat="45.22749" lon="6.39434">
        <ele>1864</ele>
        <time>2014-07-23T12:41:23Z</time>
      </trkpt>
      <trkpt lat="45.22736" lon="6.39454">
        <ele>1865</ele>
        <time>2014-07-23T12:41:35Z</time>
      </trkpt>
      <trkpt lat="45.22719" lon="6.39472">
        <ele>1866</ele>
        <time>2014-07-23T12:41:42Z</time>
      </trkpt>
      <trkpt lat="45.22703" lon="6.39486">
        <ele>1867</ele>
        <time>2014-07-23T12:42:02Z</time>
      </trkpt>
      <trkpt lat="45.22687" lon="6.39499">
        <ele>1868</ele>
        <time>2014-07-23T12:42:43Z</time>
      </trkpt>
      <trkpt lat="45.22669" lon="6.39513">
        <ele>1856</ele>
        <time>2014-07-23T12:45:10Z</time>
      </trkpt>
      <trkpt lat="45.22657" lon="6.39536">
        <ele>1853</ele>
        <time>2014-07-23T12:45:20Z</time>
      </trkpt>
      <trkpt lat="45.22644" lon="6.39556">
        <ele>1848</ele>
        <time>2014-07-23T12:45:25Z</time>
      </trkpt>
      <trkpt lat="45.22629" lon="6.39573">
        <ele>1846</ele>
        <time>2014-07-23T12:45:33Z</time>
      </trkpt>
      <trkpt lat="45.22616" lon="6.39596">
        <ele>1824</ele>
        <time>2014-07-23T12:45:39Z</time>
      </trkpt>
      <trkpt lat="45.22603" lon="6.39615">
        <ele>1822</ele>
        <time>2014-07-23T12:45:45Z</time>
      </trkpt>
      <trkpt lat="45.22622" lon="6.39623">
        <ele>1818</ele>
        <time>2014-07-23T12:46:13Z</time>
      </trkpt>
      <trkpt lat="45.22639" lon="6.39615">
        <ele>1819</ele>
        <time>2014-07-23T12:46:17Z</time>
      </trkpt>
      <trkpt lat="45.22659" lon="6.39616">
        <ele>1818</ele>
        <time>2014-07-23T12:46:22Z</time>
      </trkpt>
      <trkpt lat="45.22678" lon="6.39623">
        <ele>1809</ele>
        <time>2014-07-23T12:46:29Z</time>
      </trkpt>
      <trkpt lat="45.22692" lon="6.3964">
        <ele>1805</ele>
        <time>2014-07-23T12:46:39Z</time>
      </trkpt>
      <trkpt lat="45.22707" lon="6.39656">
        <ele>1802</ele>
        <time>2014-07-23T12:46:46Z</time>
      </trkpt>
      <trkpt lat="45.22721" lon="6.39677">
        <ele>1780</ele>
        <time>2014-07-23T12:46:50Z</time>
      </trkpt>
      <trkpt lat="45.22739" lon="6.39688">
        <ele>1780</ele>
        <time>2014-07-23T12:46:57Z</time>
      </trkpt>
      <trkpt lat="45.22755" lon="6.39703">
        <ele>1773</ele>
        <time>2014-07-23T12:47:01Z</time>
      </trkpt>
      <trkpt lat="45.22773" lon="6.39705">
        <ele>1772</ele>
        <time>2014-07-23T12:47:05Z</time>
      </trkpt>
      <trkpt lat="45.22791" lon="6.39711">
        <ele>1770</ele>
        <time>2014-07-23T12:47:09Z</time>
      </trkpt>
      <trkpt lat="45.2281" lon="6.39717">
        <ele>1768</ele>
        <time>2014-07-23T12:47:16Z</time>
      </trkpt>
      <trkpt lat="45.22829" lon="6.39724">
        <ele>1765</ele>
        <time>2014-07-23T12:47:21Z</time>
      </trkpt>
      <trkpt lat="45.22851" lon="6.39733">
        <ele>1758</ele>
        <time>2014-07-23T12:47:26Z</time>
      </trkpt>
      <trkpt lat="45.22875" lon="6.39733">
        <ele>1756</ele>
        <time>2014-07-23T12:47:29Z</time>
      </trkpt>
      <trkpt lat="45.22899" lon="6.39726">
        <ele>1754</ele>
        <time>2014-07-23T12:47:31Z</time>
      </trkpt>
      <trkpt lat="45.22918" lon="6.39718">
        <ele>1738</ele>
        <time>2014-07-23T12:47:33Z</time>
      </trkpt>
      <trkpt lat="45.22941" lon="6.39712">
        <ele>1735</ele>
        <time>2014-07-23T12:47:37Z</time>
      </trkpt>
      <trkpt lat="45.22959" lon="6.39712">
        <ele>1731</ele>
        <time>2014-07-23T12:47:40Z</time>
      </trkpt>
      <trkpt lat="45.2298" lon="6.39716">
        <ele>1727</ele>
        <time>2014-07-23T12:47:44Z</time>
      </trkpt>
      <trkpt lat="45.23002" lon="6.39722">
        <ele>1698</ele>
        <time>2014-07-23T12:47:48Z</time>
      </trkpt>
      <trkpt lat="45.2301" lon="6.39747">
        <ele>1705</ele>
        <time>2014-07-23T12:48:19Z</time>
      </trkpt>
      <trkpt lat="45.23005" lon="6.39777">
        <ele>1696</ele>
        <time>2014-07-23T12:48:23Z</time>
      </trkpt>
      <trkpt lat="45.23004" lon="6.39804">
        <ele>1691</ele>
        <time>2014-07-23T12:48:26Z</time>
      </trkpt>
      <trkpt lat="45.22998" lon="6.39834">
        <ele>1696</ele>
        <time>2014-07-23T12:48:31Z</time>
      </trkpt>
      <trkpt lat="45.22987" lon="6.39856">
        <ele>1691</ele>
        <time>2014-07-23T12:48:35Z</time>
      </trkpt>
      <trkpt lat="45.22972" lon="6.39874">
        <ele>1688</ele>
        <time>2014-07-23T12:48:39Z</time>
      </trkpt>
      <trkpt lat="45.2296" lon="6.39898">
        <ele>1685</ele>
        <time>2014-07-23T12:48:44Z</time>
      </trkpt>
      <trkpt lat="45.22951" lon="6.39924">
        <ele>1668</ele>
        <time>2014-07-23T12:48:49Z</time>
      </trkpt>
      <trkpt lat="45.22935" lon="6.39939">
        <ele>1668</ele>
        <time>2014-07-23T12:48:55Z</time>
      </trkpt>
      <trkpt lat="45.22927" lon="6.39964">
        <ele>1663</ele>
        <time>2014-07-23T12:49:00Z</time>
      </trkpt>
      <trkpt lat="45.22923" lon="6.3999">
        <ele>1659</ele>
        <time>2014-07-23T12:49:04Z</time>
      </trkpt>
      <trkpt lat="45.22915" lon="6.40016">
        <ele>1653</ele>
        <time>2014-07-23T12:49:08Z</time>
      </trkpt>
      <trkpt lat="45.22907" lon="6.40041">
        <ele>1649</ele>
        <time>2014-07-23T12:49:12Z</time>
      </trkpt>
      <trkpt lat="45.22899" lon="6.40071">
        <ele>1645</ele>
        <time>2014-07-23T12:49:15Z</time>
      </trkpt>
      <trkpt lat="45.22888" lon="6.40097">
        <ele>1637</ele>
        <time>2014-07-23T12:49:19Z</time>
      </trkpt>
      <trkpt lat="45.22878" lon="6.4012">
        <ele>1636</ele>
        <time>2014-07-23T12:49:22Z</time>
      </trkpt>
      <trkpt lat="45.22869" lon="6.40149">
        <ele>1634</ele>
        <time>2014-07-23T12:49:26Z</time>
      </trkpt>
      <trkpt lat="45.22864" lon="6.40179">
        <ele>1626</ele>
        <time>2014-07-23T12:49:29Z</time>
      </trkpt>
      <trkpt lat="45.22857" lon="6.40204">
        <ele>1625</ele>
        <time>2014-07-23T12:49:31Z</time>
      </trkpt>
      <trkpt lat="45.2285" lon="6.40228">
        <ele>1623</ele>
        <time>2014-07-23T12:49:34Z</time>
      </trkpt>
      <trkpt lat="45.22851" lon="6.40257">
        <ele>1618</ele>
        <time>2014-07-23T12:49:39Z</time>
      </trkpt>
      <trkpt lat="45.22843" lon="6.40287">
        <ele>1616</ele>
        <time>2014-07-23T12:49:43Z</time>
      </trkpt>
      <trkpt lat="45.22839" lon="6.40316">
        <ele>1614</ele>
        <time>2014-07-23T12:49:46Z</time>
      </trkpt>
      <trkpt lat="45.22832" lon="6.40345">
        <ele>1612</ele>
        <time>2014-07-23T12:49:50Z</time>
      </trkpt>
      <trkpt lat="45.22835" lon="6.40376">
        <ele>1607</ele>
        <time>2014-07-23T12:49:54Z</time>
      </trkpt>
      <trkpt lat="45.22842" lon="6.40405">
        <ele>1606</ele>
        <time>2014-07-23T12:49:58Z</time>
      </trkpt>
      <trkpt lat="45.22826" lon="6.40426">
        <ele>1605</ele>
        <time>2014-07-23T12:50:03Z</time>
      </trkpt>
      <trkpt lat="45.22809" lon="6.4044">
        <ele>1604</ele>
        <time>2014-07-23T12:50:07Z</time>
      </trkpt>
      <trkpt lat="45.22793" lon="6.40456">
        <ele>1603</ele>
        <time>2014-07-23T12:50:13Z</time>
      </trkpt>
      <trkpt lat="45.22777" lon="6.40473">
        <ele>1602</ele>
        <time>2014-07-23T12:50:19Z</time>
      </trkpt>
      <trkpt lat="45.22757" lon="6.40498">
        <ele>1601</ele>
        <time>2014-07-23T12:51:09Z</time>
      </trkpt>
      <trkpt lat="45.22739" lon="6.40509">
        <ele>1599</ele>
        <time>2014-07-23T12:51:12Z</time>
      </trkpt>
      <trkpt lat="45.22722" lon="6.40525">
        <ele>1597</ele>
        <time>2014-07-23T12:51:16Z</time>
      </trkpt>
      <trkpt lat="45.22725" lon="6.40559">
        <ele>1595</ele>
        <time>2014-07-23T12:51:20Z</time>
      </trkpt>
      <trkpt lat="45.22731" lon="6.40587">
        <ele>1586</ele>
        <time>2014-07-23T12:51:23Z</time>
      </trkpt>
    </trkseg>
  </trk>
</gpx>